VJT29 KLGA-LFLY
Flight info
| Callsign | VJT29 |
|---|---|
| Flight time | 7h 3m |
| Altitude | 35000 |
| Route | DCT |
| Aircraft | B738/M-SDE2E3FGHIRWXY/LB1 |
Departure
| Time | 2026-05-05 13:29 |
|---|---|
| Airport | LaGuardia Airport (KLGA) |
Arrival
| Time | 2026-05-05 20:32 |
|---|---|
| Airport | Lyon Bron Airport (LFLY) |
| Time | Latitude | Longitude | Altitude | Speed | Heading |
|---|---|---|---|---|---|
| 2026-05-05 13:03 | 40.77405 | -73.88337 | 13 ft | 0 kts | 270° |
| 2026-05-05 13:16 | 40.77404 | -73.88338 | 19 ft | 0 kts | 258° |
| 2026-05-05 13:16 | 40.77402 | -73.88340 | 21 ft | 0 kts | 224° |
| 2026-05-05 13:16 | 40.77398 | -73.88339 | 21 ft | 0 kts | 184° |
| 2026-05-05 13:16 | 40.77395 | -73.88336 | 21 ft | 2 kts | 160° |
| 2026-05-05 13:17 | 40.77372 | -73.88308 | 21 ft | 5 kts | 116° |
| 2026-05-05 13:17 | 40.77356 | -73.88266 | 25 ft | 5 kts | 119° |
| 2026-05-05 13:17 | 40.77325 | -73.88244 | 26 ft | 5 kts | 173° |
| 2026-05-05 13:17 | 40.77292 | -73.88258 | 24 ft | 5 kts | 209° |
| 2026-05-05 13:18 | 40.77255 | -73.88288 | 25 ft | 7 kts | 212° |
| 2026-05-05 13:18 | 40.77207 | -73.88330 | 28 ft | 9 kts | 215° |
| 2026-05-05 13:18 | 40.77155 | -73.88373 | 29 ft | 9 kts | 211° |
| 2026-05-05 13:18 | 40.77101 | -73.88415 | 30 ft | 9 kts | 210° |
| 2026-05-05 13:19 | 40.77047 | -73.88450 | 30 ft | 7 kts | 197° |
| 2026-05-05 13:19 | 40.77022 | -73.88455 | 31 ft | 0 kts | 182° |
| 2026-05-05 13:21 | 40.77014 | -73.88455 | 31 ft | 6 kts | 182° |
| 2026-05-05 13:22 | 40.76973 | -73.88455 | 32 ft | 6 kts | 170° |
| 2026-05-05 13:22 | 40.76940 | -73.88424 | 32 ft | 6 kts | 117° |
| 2026-05-05 13:22 | 40.76957 | -73.88378 | 31 ft | 6 kts | 34° |
| 2026-05-05 13:22 | 40.76974 | -73.88364 | 31 ft | 0 kts | 30° |
| 2026-05-05 13:23 | 40.77022 | -73.88329 | 31 ft | 35 kts | 31° |
| 2026-05-05 13:23 | 40.77425 | -73.87997 | 27 ft | 62 kts | 32° |
| 2026-05-05 13:23 | 40.77536 | -73.87904 | 26 ft | 1 kts | 32° |
| 2026-05-05 13:24 | 40.77568 | -73.87878 | 26 ft | 12 kts | 32° |
| 2026-05-05 13:24 | 40.77643 | -73.87799 | 26 ft | 15 kts | 54° |
| 2026-05-05 13:24 | 40.77697 | -73.87688 | 29 ft | 14 kts | 58° |
| 2026-05-05 13:24 | 40.77749 | -73.87582 | 26 ft | 14 kts | 48° |
| 2026-05-05 13:25 | 40.77828 | -73.87514 | 23 ft | 13 kts | 31° |
| 2026-05-05 13:25 | 40.77907 | -73.87451 | 20 ft | 13 kts | 32° |
| 2026-05-05 13:25 | 40.77983 | -73.87390 | 18 ft | 13 kts | 32° |
| 2026-05-05 13:25 | 40.78060 | -73.87325 | 17 ft | 13 kts | 33° |
| 2026-05-05 13:26 | 40.78134 | -73.87261 | 18 ft | 13 kts | 35° |
| 2026-05-05 13:26 | 40.78205 | -73.87197 | 17 ft | 12 kts | 32° |
| 2026-05-05 13:26 | 40.78277 | -73.87139 | 19 ft | 12 kts | 31° |
| 2026-05-05 13:26 | 40.78348 | -73.87083 | 21 ft | 12 kts | 31° |
| 2026-05-05 13:27 | 40.78416 | -73.87030 | 22 ft | 11 kts | 31° |
| 2026-05-05 13:27 | 40.78482 | -73.87019 | 20 ft | 10 kts | 340° |
| 2026-05-05 13:27 | 40.78525 | -73.87077 | 20 ft | 8 kts | 274° |
| 2026-05-05 13:27 | 40.78505 | -73.87108 | 21 ft | 5 kts | 205° |
| 2026-05-05 13:28 | 40.78486 | -73.87121 | 21 ft | 0 kts | 209° |
| 2026-05-05 13:28 | 40.78361 | -73.87214 | 19 ft | 57 kts | 212° |
| 2026-05-05 13:28 | 40.77794 | -73.87690 | 23 ft | 132 kts | 212° |
| 2026-05-05 13:29 | 40.76838 | -73.88489 | 112 ft | 187 kts | 213° |
| 2026-05-05 13:29 | 40.75734 | -73.89457 | 951 ft | 192 kts | 216° |
| 2026-05-05 13:29 | 40.74617 | -73.90451 | 1791 ft | 199 kts | 219° |
| 2026-05-05 13:29 | 40.73341 | -73.91226 | 2569 ft | 213 kts | 190° |
| 2026-05-05 13:30 | 40.71856 | -73.90884 | 3484 ft | 219 kts | 172° |
| 2026-05-05 13:30 | 40.70365 | -73.90421 | 4285 ft | 220 kts | 174° |
| 2026-05-05 13:30 | 40.68819 | -73.90017 | 4961 ft | 231 kts | 176° |
| 2026-05-05 13:30 | 40.67207 | -73.89809 | 5612 ft | 239 kts | 181° |
| 2026-05-05 13:31 | 40.65506 | -73.89697 | 6295 ft | 248 kts | 182° |
| 2026-05-05 13:31 | 40.63761 | -73.89596 | 6915 ft | 259 kts | 182° |
| 2026-05-05 13:31 | 40.61918 | -73.89555 | 7586 ft | 268 kts | 191° |
| 2026-05-05 13:31 | 40.60146 | -73.90296 | 8403 ft | 270 kts | 211° |
| 2026-05-05 13:32 | 40.58517 | -73.91601 | 9269 ft | 278 kts | 214° |
| 2026-05-05 13:32 | 40.56875 | -73.92982 | 10094 ft | 285 kts | 214° |
| 2026-05-05 13:32 | 40.55170 | -73.94403 | 10878 ft | 292 kts | 215° |
| 2026-05-05 13:32 | 40.53422 | -73.95844 | 11675 ft | 297 kts | 215° |
| 2026-05-05 13:33 | 40.51692 | -73.97308 | 12494 ft | 301 kts | 217° |
| 2026-05-05 13:33 | 40.50105 | -73.99084 | 13284 ft | 300 kts | 236° |
| 2026-05-05 13:33 | 40.49324 | -74.01570 | 14096 ft | 298 kts | 263° |
| 2026-05-05 13:33 | 40.49614 | -74.04271 | 14865 ft | 305 kts | 290° |
| 2026-05-05 13:34 | 40.50913 | -74.06485 | 15642 ft | 318 kts | 317° |
| 2026-05-05 13:34 | 40.52958 | -74.07714 | 16445 ft | 329 kts | 341° |
| 2026-05-05 13:34 | 40.55199 | -74.08217 | 17286 ft | 330 kts | 346° |
| 2026-05-05 13:34 | 40.57483 | -74.08593 | 18124 ft | 327 kts | 347° |
| 2026-05-05 13:35 | 40.59743 | -74.08940 | 18874 ft | 323 kts | 347° |
| 2026-05-05 13:35 | 40.61917 | -74.09263 | 19603 ft | 317 kts | 347° |
| 2026-05-05 13:35 | 40.64103 | -74.09581 | 20178 ft | 319 kts | 347° |
| 2026-05-05 13:35 | 40.66332 | -74.09908 | 20654 ft | 322 kts | 348° |
| 2026-05-05 13:36 | 40.68612 | -74.09724 | 21088 ft | 338 kts | 14° |
| 2026-05-05 13:36 | 40.70713 | -74.08322 | 21666 ft | 346 kts | 29° |
| 2026-05-05 13:36 | 40.72710 | -74.06491 | 22173 ft | 349 kts | 32° |
| 2026-05-05 13:36 | 40.74678 | -74.04591 | 22676 ft | 350 kts | 32° |
| 2026-05-05 13:37 | 40.76619 | -74.02700 | 23182 ft | 350 kts | 32° |
| 2026-05-05 13:37 | 40.78584 | -74.00779 | 23628 ft | 350 kts | 32° |
| 2026-05-05 13:37 | 40.80550 | -73.98858 | 24076 ft | 350 kts | 33° |
| 2026-05-05 13:37 | 40.82495 | -73.96969 | 24445 ft | 352 kts | 33° |
| 2026-05-05 13:38 | 40.84501 | -73.95039 | 24664 ft | 358 kts | 33° |
| 2026-05-05 13:38 | 40.86523 | -73.93112 | 24926 ft | 363 kts | 32° |
| 2026-05-05 13:38 | 40.88603 | -73.91144 | 25180 ft | 369 kts | 34° |
| 2026-05-05 13:38 | 40.90377 | -73.88639 | 25382 ft | 378 kts | 59° |
| 2026-05-05 13:39 | 40.91531 | -73.85508 | 25705 ft | 381 kts | 67° |
| 2026-05-05 13:39 | 40.92523 | -73.82265 | 25946 ft | 386 kts | 69° |
| 2026-05-05 13:39 | 40.93507 | -73.78928 | 26212 ft | 391 kts | 69° |
| 2026-05-05 13:39 | 40.94498 | -73.75550 | 26468 ft | 395 kts | 69° |
| 2026-05-05 13:40 | 40.95491 | -73.72165 | 26724 ft | 399 kts | 69° |
| 2026-05-05 13:40 | 40.96506 | -73.68713 | 26990 ft | 403 kts | 69° |
| 2026-05-05 13:40 | 40.97535 | -73.65231 | 27257 ft | 407 kts | 69° |
| 2026-05-05 13:40 | 40.98564 | -73.61767 | 27519 ft | 410 kts | 69° |
| 2026-05-05 13:41 | 40.99621 | -73.58227 | 27789 ft | 413 kts | 69° |
| 2026-05-05 13:41 | 41.00676 | -73.54713 | 28060 ft | 416 kts | 69° |
| 2026-05-05 13:41 | 41.01754 | -73.51146 | 28330 ft | 418 kts | 69° |
| 2026-05-05 13:41 | 41.02844 | -73.47555 | 28601 ft | 420 kts | 69° |
| 2026-05-05 13:42 | 41.03950 | -73.43937 | 28882 ft | 422 kts | 69° |
| 2026-05-05 13:42 | 41.05059 | -73.40327 | 29163 ft | 424 kts | 69° |
| 2026-05-05 13:42 | 41.06163 | -73.36749 | 29451 ft | 425 kts | 69° |
| 2026-05-05 13:42 | 41.07292 | -73.33109 | 29732 ft | 426 kts | 69° |
| 2026-05-05 13:43 | 41.08429 | -73.29464 | 30017 ft | 427 kts | 69° |
| 2026-05-05 13:43 | 41.09577 | -73.25797 | 30269 ft | 428 kts | 69° |
| 2026-05-05 13:43 | 41.10708 | -73.22191 | 30490 ft | 429 kts | 69° |
| 2026-05-05 13:43 | 41.11855 | -73.18531 | 30738 ft | 429 kts | 69° |
| 2026-05-05 13:44 | 41.13005 | -73.14858 | 30984 ft | 429 kts | 69° |
| 2026-05-05 13:44 | 41.14142 | -73.11218 | 31226 ft | 429 kts | 69° |
| 2026-05-05 13:44 | 41.15288 | -73.07538 | 31473 ft | 429 kts | 69° |
| 2026-05-05 13:44 | 41.16411 | -73.03920 | 31721 ft | 429 kts | 69° |
| 2026-05-05 13:45 | 41.17547 | -73.00246 | 31972 ft | 428 kts | 69° |
| 2026-05-05 13:45 | 41.18670 | -72.96601 | 32232 ft | 427 kts | 69° |
| 2026-05-05 13:45 | 41.19785 | -72.92966 | 32487 ft | 426 kts | 69° |
| 2026-05-05 13:45 | 41.20904 | -72.89302 | 32744 ft | 425 kts | 69° |
| 2026-05-05 13:46 | 41.21998 | -72.85706 | 33001 ft | 424 kts | 69° |
| 2026-05-05 13:46 | 41.23101 | -72.82058 | 33264 ft | 422 kts | 69° |
| 2026-05-05 13:46 | 41.24183 | -72.78464 | 33525 ft | 421 kts | 69° |
| 2026-05-05 13:46 | 41.25265 | -72.74849 | 33786 ft | 419 kts | 69° |
| 2026-05-05 13:47 | 41.26323 | -72.71292 | 34016 ft | 418 kts | 69° |
| 2026-05-05 13:47 | 41.27399 | -72.67659 | 33994 ft | 423 kts | 69° |
| 2026-05-05 13:47 | 41.29567 | -72.60312 | 34019 ft | 432 kts | 69° |
| 2026-05-05 13:48 | 41.31777 | -72.52805 | 34023 ft | 440 kts | 69° |
| 2026-05-05 13:48 | 41.34024 | -72.45165 | 34019 ft | 449 kts | 69° |
| 2026-05-05 13:49 | 41.36326 | -72.37336 | 34021 ft | 460 kts | 69° |
| 2026-05-05 13:49 | 41.38680 | -72.29318 | 34021 ft | 470 kts | 69° |
| 2026-05-05 13:50 | 41.41089 | -72.21107 | 34032 ft | 479 kts | 69° |
| 2026-05-05 13:50 | 41.43523 | -72.12814 | 34022 ft | 482 kts | 68° |
| 2026-05-05 13:51 | 41.45945 | -72.04567 | 34013 ft | 476 kts | 68° |
| 2026-05-05 13:51 | 41.48343 | -71.96414 | 34022 ft | 472 kts | 68° |
| 2026-05-05 13:52 | 41.50750 | -71.88251 | 34032 ft | 472 kts | 68° |
| 2026-05-05 13:52 | 41.53157 | -71.80106 | 34030 ft | 473 kts | 68° |
| 2026-05-05 13:53 | 41.55590 | -71.71907 | 34030 ft | 473 kts | 68° |
| 2026-05-05 13:53 | 41.58024 | -71.63733 | 34008 ft | 474 kts | 68° |
| 2026-05-05 13:54 | 41.60466 | -71.55559 | 34003 ft | 475 kts | 68° |
| 2026-05-05 13:54 | 41.62916 | -71.47380 | 34001 ft | 475 kts | 68° |
| 2026-05-05 13:55 | 41.65372 | -71.39199 | 34004 ft | 479 kts | 68° |
| 2026-05-05 13:55 | 41.67471 | -71.32217 | 34029 ft | 485 kts | 68° |
| 2026-05-05 13:56 | 41.70004 | -71.23814 | 34024 ft | 490 kts | 68° |
| 2026-05-05 13:56 | 41.72566 | -71.15338 | 34024 ft | 492 kts | 68° |
| 2026-05-05 13:57 | 41.75129 | -71.06874 | 34010 ft | 493 kts | 68° |
| 2026-05-05 13:57 | 41.77693 | -70.98418 | 34008 ft | 491 kts | 68° |
| 2026-05-05 13:58 | 41.80273 | -70.89915 | 34011 ft | 490 kts | 68° |
| 2026-05-05 13:58 | 41.82839 | -70.81470 | 34004 ft | 489 kts | 68° |
| 2026-05-05 13:59 | 41.86674 | -70.68863 | 33997 ft | 488 kts | 68° |
| 2026-05-05 14:00 | 41.90532 | -70.56199 | 34001 ft | 487 kts | 68° |
| 2026-05-05 14:00 | 41.93086 | -70.47817 | 34007 ft | 486 kts | 68° |
| 2026-05-05 14:01 | 41.95643 | -70.39426 | 34026 ft | 486 kts | 68° |
| 2026-05-05 14:01 | 41.98198 | -70.31034 | 34027 ft | 486 kts | 68° |
| 2026-05-05 14:02 | 42.00763 | -70.22607 | 34027 ft | 486 kts | 68° |
| 2026-05-05 14:02 | 42.03317 | -70.14202 | 34030 ft | 486 kts | 68° |
| 2026-05-05 14:03 | 42.05882 | -70.05759 | 34027 ft | 486 kts | 68° |
| 2026-05-05 14:03 | 42.08431 | -69.97364 | 34023 ft | 486 kts | 68° |
| 2026-05-05 14:04 | 42.10981 | -69.88952 | 34024 ft | 486 kts | 68° |
| 2026-05-05 14:04 | 42.13539 | -69.80505 | 34021 ft | 487 kts | 68° |
| 2026-05-05 14:05 | 42.16098 | -69.72041 | 34022 ft | 487 kts | 68° |
| 2026-05-05 14:05 | 42.18651 | -69.63588 | 34023 ft | 488 kts | 67° |
| 2026-05-05 14:06 | 42.21206 | -69.55113 | 34023 ft | 488 kts | 67° |
| 2026-05-05 14:06 | 42.23750 | -69.46659 | 34028 ft | 489 kts | 67° |
| 2026-05-05 14:07 | 42.26309 | -69.38135 | 34028 ft | 489 kts | 67° |
| 2026-05-05 14:07 | 42.28868 | -69.29596 | 34029 ft | 490 kts | 67° |
| 2026-05-05 14:08 | 42.31418 | -69.21067 | 34028 ft | 490 kts | 67° |
| 2026-05-05 14:08 | 42.33970 | -69.12510 | 34031 ft | 490 kts | 67° |
| 2026-05-05 14:09 | 42.36500 | -69.04001 | 34031 ft | 490 kts | 67° |
| 2026-05-05 14:09 | 42.39050 | -68.95410 | 34035 ft | 490 kts | 67° |
| 2026-05-05 14:10 | 42.41572 | -68.86898 | 34040 ft | 490 kts | 67° |
| 2026-05-05 14:10 | 42.44107 | -68.78320 | 34042 ft | 490 kts | 67° |
| 2026-05-05 14:11 | 42.46634 | -68.69747 | 34044 ft | 490 kts | 67° |
| 2026-05-05 14:11 | 42.49162 | -68.61149 | 34047 ft | 490 kts | 67° |
| 2026-05-05 14:12 | 42.51669 | -68.52608 | 34048 ft | 489 kts | 67° |
| 2026-05-05 14:12 | 42.54183 | -68.44040 | 34054 ft | 489 kts | 67° |
| 2026-05-05 14:13 | 42.56703 | -68.35443 | 34049 ft | 489 kts | 67° |
| 2026-05-05 14:13 | 42.59205 | -68.26890 | 34057 ft | 489 kts | 67° |
| 2026-05-05 14:14 | 42.61700 | -68.18347 | 34058 ft | 488 kts | 67° |
| 2026-05-05 14:14 | 42.64211 | -68.09735 | 34058 ft | 488 kts | 67° |
| 2026-05-05 14:15 | 42.66698 | -68.01193 | 34061 ft | 488 kts | 67° |
| 2026-05-05 14:15 | 42.69189 | -67.92622 | 34066 ft | 488 kts | 67° |
| 2026-05-05 14:16 | 42.71681 | -67.84034 | 34067 ft | 488 kts | 67° |
| 2026-05-05 14:16 | 42.74165 | -67.75458 | 34069 ft | 487 kts | 67° |
| 2026-05-05 14:17 | 42.76649 | -67.66874 | 34070 ft | 487 kts | 67° |
| 2026-05-05 14:17 | 42.79136 | -67.58266 | 34069 ft | 488 kts | 67° |
| 2026-05-05 14:18 | 42.81615 | -67.49675 | 34071 ft | 488 kts | 67° |
| 2026-05-05 14:18 | 42.84086 | -67.41102 | 34076 ft | 488 kts | 66° |
| 2026-05-05 14:19 | 42.86560 | -67.32502 | 34077 ft | 488 kts | 66° |
| 2026-05-05 14:19 | 42.89047 | -67.23842 | 34075 ft | 488 kts | 66° |
| 2026-05-05 14:20 | 42.91509 | -67.15244 | 34081 ft | 488 kts | 66° |
| 2026-05-05 14:20 | 42.93969 | -67.06638 | 34079 ft | 488 kts | 66° |
| 2026-05-05 14:21 | 42.96438 | -66.97980 | 34086 ft | 489 kts | 66° |
| 2026-05-05 14:21 | 42.98897 | -66.89333 | 34085 ft | 489 kts | 66° |
| 2026-05-05 14:22 | 43.01356 | -66.80664 | 34085 ft | 489 kts | 66° |
| 2026-05-05 14:22 | 43.03806 | -66.72001 | 34087 ft | 489 kts | 66° |
| 2026-05-05 14:23 | 43.06252 | -66.63331 | 34089 ft | 489 kts | 66° |
| 2026-05-05 14:23 | 43.08693 | -66.54658 | 34093 ft | 489 kts | 66° |
| 2026-05-05 14:24 | 43.11135 | -66.45959 | 34089 ft | 489 kts | 66° |
| 2026-05-05 14:24 | 43.13561 | -66.37297 | 34094 ft | 489 kts | 66° |
| 2026-05-05 14:25 | 43.15988 | -66.28604 | 34094 ft | 489 kts | 66° |
| 2026-05-05 14:25 | 43.18414 | -66.19896 | 34099 ft | 489 kts | 66° |
| 2026-05-05 14:26 | 43.20847 | -66.11143 | 34094 ft | 489 kts | 66° |
| 2026-05-05 14:26 | 43.23254 | -66.02464 | 34100 ft | 489 kts | 66° |
| 2026-05-05 14:27 | 43.25666 | -65.93751 | 34099 ft | 489 kts | 66° |
| 2026-05-05 14:27 | 43.28084 | -65.85000 | 34107 ft | 489 kts | 66° |
| 2026-05-05 14:28 | 43.30489 | -65.76279 | 34104 ft | 489 kts | 66° |
| 2026-05-05 14:28 | 43.32880 | -65.67581 | 34108 ft | 489 kts | 66° |
| 2026-05-05 14:29 | 43.35277 | -65.58843 | 34113 ft | 489 kts | 66° |
| 2026-05-05 14:29 | 43.37686 | -65.50039 | 34117 ft | 489 kts | 66° |
| 2026-05-05 14:30 | 43.40075 | -65.41288 | 34116 ft | 489 kts | 66° |
| 2026-05-05 14:30 | 43.42465 | -65.32514 | 34118 ft | 490 kts | 66° |
| 2026-05-05 14:31 | 43.44850 | -65.23738 | 34116 ft | 490 kts | 66° |
| 2026-05-05 14:31 | 43.47219 | -65.15001 | 34122 ft | 490 kts | 66° |
| 2026-05-05 14:32 | 43.49602 | -65.06195 | 34124 ft | 491 kts | 66° |
| 2026-05-05 14:32 | 43.51974 | -64.97404 | 34121 ft | 491 kts | 66° |
| 2026-05-05 14:33 | 43.54360 | -64.88547 | 34120 ft | 491 kts | 66° |
| 2026-05-05 14:33 | 43.56726 | -64.79742 | 34124 ft | 491 kts | 66° |
| 2026-05-05 14:34 | 43.59089 | -64.70926 | 34125 ft | 491 kts | 66° |
| 2026-05-05 14:34 | 43.61447 | -64.62113 | 34120 ft | 491 kts | 66° |
| 2026-05-05 14:35 | 43.63813 | -64.53246 | 34125 ft | 490 kts | 66° |
| 2026-05-05 14:35 | 43.66164 | -64.44418 | 34118 ft | 490 kts | 66° |
| 2026-05-05 14:36 | 43.68507 | -64.35608 | 34125 ft | 490 kts | 66° |
| 2026-05-05 14:36 | 43.70851 | -64.26782 | 34121 ft | 490 kts | 66° |
| 2026-05-05 14:37 | 43.73205 | -64.17906 | 34123 ft | 490 kts | 66° |
| 2026-05-05 14:37 | 43.75545 | -64.09074 | 34116 ft | 490 kts | 66° |
| 2026-05-05 14:38 | 43.77879 | -64.00259 | 34125 ft | 489 kts | 66° |
| 2026-05-05 14:38 | 43.80216 | -63.91424 | 34118 ft | 489 kts | 66° |
| 2026-05-05 14:39 | 43.82559 | -63.82557 | 34126 ft | 489 kts | 66° |
| 2026-05-05 14:39 | 43.84888 | -63.73733 | 34125 ft | 489 kts | 66° |
| 2026-05-05 14:40 | 43.87216 | -63.64902 | 34126 ft | 489 kts | 66° |
| 2026-05-05 14:40 | 43.89559 | -63.56009 | 34128 ft | 489 kts | 66° |
| 2026-05-05 14:41 | 43.91885 | -63.47177 | 34126 ft | 489 kts | 66° |
| 2026-05-05 14:41 | 43.94220 | -63.38306 | 34130 ft | 489 kts | 66° |
| 2026-05-05 14:42 | 43.96553 | -63.29440 | 34128 ft | 489 kts | 66° |
| 2026-05-05 14:42 | 43.98877 | -63.20593 | 34126 ft | 489 kts | 66° |
| 2026-05-05 14:43 | 44.00821 | -63.13192 | 34128 ft | 489 kts | 66° |
| 2026-05-05 14:43 | 44.03152 | -63.04309 | 34128 ft | 489 kts | 66° |
| 2026-05-05 14:44 | 44.05487 | -62.95409 | 34133 ft | 490 kts | 66° |
| 2026-05-05 14:44 | 44.07809 | -62.86545 | 34130 ft | 490 kts | 66° |
| 2026-05-05 14:45 | 44.10152 | -62.77593 | 34130 ft | 490 kts | 65° |
| 2026-05-05 14:45 | 44.12483 | -62.68676 | 34134 ft | 490 kts | 65° |
| 2026-05-05 14:46 | 44.14810 | -62.59764 | 34132 ft | 491 kts | 65° |
| 2026-05-05 14:46 | 44.17132 | -62.50860 | 34133 ft | 491 kts | 65° |
| 2026-05-05 14:47 | 44.19472 | -62.41875 | 34133 ft | 492 kts | 65° |
| 2026-05-05 14:47 | 44.21786 | -62.32971 | 34133 ft | 492 kts | 65° |
| 2026-05-05 14:48 | 44.24124 | -62.23948 | 34129 ft | 493 kts | 65° |
| 2026-05-05 14:48 | 44.26447 | -62.14965 | 34135 ft | 493 kts | 65° |
| 2026-05-05 14:49 | 44.28765 | -62.05972 | 34132 ft | 494 kts | 65° |
| 2026-05-05 14:49 | 44.31074 | -61.96988 | 34137 ft | 494 kts | 65° |
| 2026-05-05 14:50 | 44.33401 | -61.87903 | 34132 ft | 494 kts | 65° |
| 2026-05-05 14:50 | 44.35708 | -61.78870 | 34133 ft | 495 kts | 65° |
| 2026-05-05 14:51 | 44.38013 | -61.69817 | 34141 ft | 495 kts | 65° |
| 2026-05-05 14:51 | 44.40326 | -61.60699 | 34138 ft | 496 kts | 65° |
| 2026-05-05 14:52 | 44.42616 | -61.51641 | 34136 ft | 496 kts | 65° |
| 2026-05-05 14:52 | 44.44905 | -61.42559 | 34136 ft | 497 kts | 65° |
| 2026-05-05 14:53 | 44.47209 | -61.33388 | 34137 ft | 497 kts | 65° |
| 2026-05-05 14:53 | 44.49487 | -61.24291 | 34138 ft | 497 kts | 65° |
| 2026-05-05 14:54 | 44.51765 | -61.15170 | 34140 ft | 497 kts | 65° |
| 2026-05-05 14:54 | 44.54050 | -61.05999 | 34144 ft | 498 kts | 65° |
| 2026-05-05 14:55 | 44.56323 | -60.96843 | 34137 ft | 498 kts | 65° |
| 2026-05-05 14:55 | 44.58602 | -60.87638 | 34135 ft | 498 kts | 65° |
| 2026-05-05 14:56 | 44.60852 | -60.78517 | 34140 ft | 498 kts | 65° |
| 2026-05-05 14:56 | 44.63121 | -60.69291 | 34145 ft | 498 kts | 65° |
| 2026-05-05 14:57 | 44.65370 | -60.60111 | 34141 ft | 498 kts | 65° |
| 2026-05-05 14:57 | 44.67615 | -60.50922 | 34147 ft | 498 kts | 65° |
| 2026-05-05 14:58 | 44.69869 | -60.41676 | 34142 ft | 498 kts | 65° |
| 2026-05-05 14:58 | 44.72105 | -60.32496 | 34137 ft | 498 kts | 65° |
| 2026-05-05 14:59 | 44.74359 | -60.23227 | 34141 ft | 498 kts | 65° |
| 2026-05-05 14:59 | 44.76596 | -60.14005 | 34140 ft | 498 kts | 65° |
| 2026-05-05 15:00 | 44.78449 | -60.06350 | 34139 ft | 498 kts | 65° |
| 2026-05-05 15:00 | 44.81050 | -59.95563 | 34148 ft | 498 kts | 65° |
| 2026-05-05 15:01 | 44.83264 | -59.86350 | 34154 ft | 497 kts | 65° |
| 2026-05-05 15:01 | 44.85484 | -59.77095 | 34146 ft | 497 kts | 65° |
| 2026-05-05 15:02 | 44.87692 | -59.67870 | 34144 ft | 497 kts | 65° |
| 2026-05-05 15:02 | 44.89891 | -59.58648 | 34145 ft | 497 kts | 65° |
| 2026-05-05 15:03 | 44.92087 | -59.49416 | 34144 ft | 497 kts | 65° |
| 2026-05-05 15:03 | 44.94279 | -59.40169 | 34148 ft | 497 kts | 65° |
| 2026-05-05 15:04 | 44.96465 | -59.30904 | 34151 ft | 498 kts | 65° |
| 2026-05-05 15:04 | 44.98641 | -59.21632 | 34145 ft | 498 kts | 65° |
| 2026-05-05 15:05 | 45.01907 | -59.07633 | 34144 ft | 499 kts | 65° |
| 2026-05-05 15:06 | 45.04069 | -58.98326 | 34145 ft | 499 kts | 65° |
| 2026-05-05 15:06 | 45.06229 | -58.88997 | 34142 ft | 499 kts | 65° |
| 2026-05-05 15:07 | 45.08373 | -58.79700 | 34144 ft | 499 kts | 65° |
| 2026-05-05 15:07 | 45.10519 | -58.70357 | 34142 ft | 499 kts | 65° |
| 2026-05-05 15:08 | 45.12670 | -58.60945 | 34141 ft | 499 kts | 65° |
| 2026-05-05 15:08 | 45.14796 | -58.51609 | 34138 ft | 499 kts | 65° |
| 2026-05-05 15:09 | 45.16918 | -58.42257 | 34139 ft | 499 kts | 65° |
| 2026-05-05 15:09 | 45.19034 | -58.32903 | 34140 ft | 499 kts | 65° |
| 2026-05-05 15:10 | 45.21159 | -58.23482 | 34136 ft | 499 kts | 65° |
| 2026-05-05 15:10 | 45.23271 | -58.14105 | 34145 ft | 500 kts | 65° |
| 2026-05-05 15:11 | 45.25375 | -58.04751 | 34146 ft | 500 kts | 65° |
| 2026-05-05 15:11 | 45.27499 | -57.95292 | 34147 ft | 500 kts | 65° |
| 2026-05-05 15:12 | 45.29607 | -57.85908 | 34146 ft | 501 kts | 65° |
| 2026-05-05 15:12 | 45.31738 | -57.76421 | 34147 ft | 502 kts | 65° |
| 2026-05-05 15:13 | 45.33861 | -57.66981 | 34149 ft | 502 kts | 65° |
| 2026-05-05 15:13 | 45.35988 | -57.57550 | 34154 ft | 503 kts | 65° |
| 2026-05-05 15:14 | 45.38129 | -57.48087 | 34152 ft | 503 kts | 65° |
| 2026-05-05 15:14 | 45.40276 | -57.38625 | 34150 ft | 504 kts | 65° |
| 2026-05-05 15:15 | 45.42449 | -57.29089 | 34150 ft | 504 kts | 65° |
| 2026-05-05 15:15 | 45.44617 | -57.19617 | 34154 ft | 504 kts | 65° |
| 2026-05-05 15:16 | 45.46805 | -57.10119 | 34154 ft | 505 kts | 65° |
| 2026-05-05 15:16 | 45.49010 | -57.00616 | 34159 ft | 505 kts | 65° |
| 2026-05-05 15:17 | 45.51232 | -56.91113 | 34156 ft | 506 kts | 65° |
| 2026-05-05 15:17 | 45.53464 | -56.81634 | 34156 ft | 506 kts | 65° |
| 2026-05-05 15:18 | 45.55733 | -56.72063 | 34161 ft | 507 kts | 65° |
| 2026-05-05 15:18 | 45.58005 | -56.62547 | 34157 ft | 508 kts | 65° |
| 2026-05-05 15:19 | 45.60293 | -56.53033 | 34157 ft | 508 kts | 65° |
| 2026-05-05 15:19 | 45.62598 | -56.43512 | 34161 ft | 509 kts | 65° |
| 2026-05-05 15:20 | 45.64936 | -56.33915 | 34154 ft | 509 kts | 65° |
| 2026-05-05 15:20 | 45.67287 | -56.24345 | 34145 ft | 510 kts | 65° |
| 2026-05-05 15:21 | 45.69646 | -56.14822 | 34151 ft | 510 kts | 65° |
| 2026-05-05 15:21 | 45.72044 | -56.05224 | 34155 ft | 511 kts | 65° |
| 2026-05-05 15:22 | 45.74461 | -55.95631 | 34149 ft | 512 kts | 65° |
| 2026-05-05 15:22 | 45.76888 | -55.86078 | 34149 ft | 512 kts | 65° |
| 2026-05-05 15:23 | 45.79346 | -55.76460 | 34149 ft | 513 kts | 65° |
| 2026-05-05 15:23 | 45.81801 | -55.66903 | 34153 ft | 513 kts | 65° |
| 2026-05-05 15:24 | 45.84279 | -55.57300 | 34151 ft | 514 kts | 65° |
| 2026-05-05 15:24 | 45.86778 | -55.47660 | 34150 ft | 514 kts | 65° |
| 2026-05-05 15:25 | 45.89290 | -55.38023 | 34150 ft | 515 kts | 65° |
| 2026-05-05 15:25 | 45.91806 | -55.28426 | 34148 ft | 515 kts | 65° |
| 2026-05-05 15:26 | 45.93916 | -55.20419 | 34148 ft | 516 kts | 65° |
| 2026-05-05 15:26 | 45.96469 | -55.10778 | 34151 ft | 517 kts | 65° |
| 2026-05-05 15:27 | 45.99036 | -55.01123 | 34149 ft | 517 kts | 65° |
| 2026-05-05 15:27 | 46.01619 | -54.91459 | 34148 ft | 518 kts | 65° |
| 2026-05-05 15:28 | 46.04216 | -54.81777 | 34148 ft | 518 kts | 65° |
| 2026-05-05 15:28 | 46.06814 | -54.72131 | 34147 ft | 519 kts | 65° |
| 2026-05-05 15:29 | 46.09435 | -54.62430 | 34150 ft | 519 kts | 65° |
| 2026-05-05 15:29 | 46.12058 | -54.52757 | 34147 ft | 519 kts | 65° |
| 2026-05-05 15:30 | 46.14706 | -54.43029 | 34147 ft | 519 kts | 65° |
| 2026-05-05 15:30 | 46.17348 | -54.33356 | 34144 ft | 519 kts | 65° |
| 2026-05-05 15:31 | 46.20019 | -54.23623 | 34141 ft | 520 kts | 65° |
| 2026-05-05 15:31 | 46.22683 | -54.13945 | 34142 ft | 520 kts | 65° |
| 2026-05-05 15:32 | 46.25364 | -54.04232 | 34133 ft | 520 kts | 65° |
| 2026-05-05 15:32 | 46.28042 | -53.94548 | 34136 ft | 520 kts | 65° |
| 2026-05-05 15:33 | 46.30721 | -53.84878 | 34132 ft | 520 kts | 65° |
| 2026-05-05 15:33 | 46.33429 | -53.75114 | 34131 ft | 520 kts | 65° |
| 2026-05-05 15:34 | 46.36119 | -53.65429 | 34129 ft | 520 kts | 65° |
| 2026-05-05 15:34 | 46.38817 | -53.55731 | 34128 ft | 520 kts | 65° |
| 2026-05-05 15:35 | 46.41516 | -53.46037 | 34132 ft | 520 kts | 65° |
| 2026-05-05 15:35 | 46.44233 | -53.36291 | 34125 ft | 520 kts | 65° |
| 2026-05-05 15:36 | 46.46956 | -53.26534 | 34126 ft | 520 kts | 65° |
| 2026-05-05 15:36 | 46.49664 | -53.16843 | 34121 ft | 520 kts | 65° |
| 2026-05-05 15:37 | 46.52375 | -53.07157 | 34124 ft | 520 kts | 65° |
| 2026-05-05 15:37 | 46.55115 | -52.97378 | 34120 ft | 520 kts | 65° |
| 2026-05-05 15:38 | 46.57837 | -52.87664 | 34117 ft | 521 kts | 65° |
| 2026-05-05 15:38 | 46.60565 | -52.77928 | 34119 ft | 521 kts | 65° |
| 2026-05-05 15:39 | 46.63316 | -52.68113 | 34117 ft | 522 kts | 65° |
| 2026-05-05 15:39 | 46.66044 | -52.58388 | 34122 ft | 522 kts | 65° |
| 2026-05-05 15:40 | 46.68805 | -52.48544 | 34119 ft | 523 kts | 65° |
| 2026-05-05 15:40 | 46.71560 | -52.38729 | 34120 ft | 524 kts | 65° |
| 2026-05-05 15:41 | 46.74315 | -52.28919 | 34113 ft | 524 kts | 65° |
| 2026-05-05 15:41 | 46.77080 | -52.19081 | 34125 ft | 524 kts | 65° |
| 2026-05-05 15:42 | 46.79849 | -52.09244 | 34129 ft | 525 kts | 65° |
| 2026-05-05 15:42 | 46.82620 | -51.99413 | 34121 ft | 525 kts | 65° |
| 2026-05-05 15:43 | 46.85414 | -51.89515 | 34123 ft | 525 kts | 65° |
| 2026-05-05 15:43 | 46.88193 | -51.79681 | 34125 ft | 525 kts | 65° |
| 2026-05-05 15:44 | 46.90992 | -51.69783 | 34132 ft | 526 kts | 65° |
| 2026-05-05 15:44 | 46.93786 | -51.59915 | 34121 ft | 525 kts | 65° |
| 2026-05-05 15:45 | 46.96585 | -51.50034 | 34118 ft | 525 kts | 65° |
| 2026-05-05 15:45 | 46.99382 | -51.40159 | 34121 ft | 525 kts | 66° |
| 2026-05-05 15:46 | 47.02172 | -51.30310 | 34119 ft | 525 kts | 65° |
| 2026-05-05 15:46 | 47.04974 | -51.20414 | 34125 ft | 524 kts | 66° |
| 2026-05-05 15:47 | 47.07771 | -51.10536 | 34116 ft | 524 kts | 66° |
| 2026-05-05 15:47 | 47.10551 | -51.00714 | 34116 ft | 524 kts | 66° |
| 2026-05-05 15:48 | 47.13343 | -50.90852 | 34118 ft | 524 kts | 66° |
| 2026-05-05 15:48 | 47.16145 | -50.80951 | 34125 ft | 524 kts | 66° |
| 2026-05-05 15:49 | 47.18946 | -50.71049 | 34117 ft | 524 kts | 66° |
| 2026-05-05 15:49 | 47.21736 | -50.61180 | 34118 ft | 524 kts | 66° |
| 2026-05-05 15:50 | 47.24547 | -50.51227 | 34120 ft | 525 kts | 66° |
| 2026-05-05 15:50 | 47.27342 | -50.41328 | 34119 ft | 525 kts | 66° |
| 2026-05-05 15:51 | 47.30145 | -50.31400 | 34121 ft | 525 kts | 66° |
| 2026-05-05 15:51 | 47.32949 | -50.21464 | 34123 ft | 526 kts | 66° |
| 2026-05-05 15:52 | 47.35755 | -50.11525 | 34126 ft | 526 kts | 66° |
| 2026-05-05 15:52 | 47.38565 | -50.01573 | 34117 ft | 527 kts | 66° |
| 2026-05-05 15:53 | 47.41389 | -49.91580 | 34120 ft | 527 kts | 66° |
| 2026-05-05 15:53 | 47.44215 | -49.81590 | 34121 ft | 528 kts | 66° |
| 2026-05-05 15:54 | 47.47065 | -49.71518 | 34118 ft | 529 kts | 66° |
| 2026-05-05 15:54 | 47.49900 | -49.61498 | 34118 ft | 529 kts | 66° |
| 2026-05-05 15:55 | 47.52733 | -49.51477 | 34119 ft | 529 kts | 66° |
| 2026-05-05 15:55 | 47.55574 | -49.41423 | 34121 ft | 529 kts | 66° |
| 2026-05-05 15:56 | 47.58405 | -49.31388 | 34122 ft | 529 kts | 66° |
| 2026-05-05 15:56 | 47.61248 | -49.21299 | 34125 ft | 529 kts | 66° |
| 2026-05-05 15:57 | 47.64081 | -49.11235 | 34125 ft | 529 kts | 66° |
| 2026-05-05 15:57 | 47.66906 | -49.01194 | 34122 ft | 529 kts | 66° |
| 2026-05-05 15:58 | 47.69744 | -48.91104 | 34126 ft | 528 kts | 66° |
| 2026-05-05 15:58 | 47.72571 | -48.81053 | 34125 ft | 528 kts | 66° |
| 2026-05-05 15:59 | 47.75393 | -48.71024 | 34124 ft | 527 kts | 66° |
| 2026-05-05 15:59 | 47.78227 | -48.60962 | 34128 ft | 527 kts | 66° |
| 2026-05-05 16:00 | 47.81059 | -48.50913 | 34128 ft | 526 kts | 66° |
| 2026-05-05 16:00 | 47.83906 | -48.40912 | 34132 ft | 525 kts | 66° |
| 2026-05-05 16:01 | 47.86754 | -48.30889 | 34130 ft | 525 kts | 66° |
| 2026-05-05 16:01 | 47.89603 | -48.20886 | 34127 ft | 525 kts | 66° |
| 2026-05-05 16:02 | 47.92473 | -48.10869 | 34128 ft | 524 kts | 66° |
| 2026-05-05 16:02 | 47.95337 | -48.00936 | 34124 ft | 524 kts | 66° |
| 2026-05-05 16:03 | 47.98246 | -47.90928 | 34126 ft | 523 kts | 66° |
| 2026-05-05 16:03 | 48.01163 | -47.80971 | 34128 ft | 523 kts | 66° |
| 2026-05-05 16:04 | 48.04096 | -47.71036 | 34133 ft | 522 kts | 66° |
| 2026-05-05 16:04 | 48.07032 | -47.61166 | 34133 ft | 522 kts | 66° |
| 2026-05-05 16:05 | 48.10013 | -47.51214 | 34122 ft | 523 kts | 66° |
| 2026-05-05 16:05 | 48.12995 | -47.41327 | 34137 ft | 523 kts | 66° |
| 2026-05-05 16:06 | 48.16018 | -47.31371 | 34135 ft | 523 kts | 66° |
| 2026-05-05 16:06 | 48.19034 | -47.21496 | 34130 ft | 523 kts | 66° |
| 2026-05-05 16:07 | 48.22071 | -47.11606 | 34133 ft | 524 kts | 66° |
| 2026-05-05 16:07 | 48.25141 | -47.01654 | 34132 ft | 524 kts | 66° |
| 2026-05-05 16:08 | 48.28211 | -46.91746 | 34139 ft | 525 kts | 66° |
| 2026-05-05 16:08 | 48.31307 | -46.81789 | 34140 ft | 526 kts | 66° |
| 2026-05-05 16:09 | 48.34418 | -46.71811 | 34141 ft | 526 kts | 66° |
| 2026-05-05 16:09 | 48.37528 | -46.61863 | 34140 ft | 526 kts | 66° |
| 2026-05-05 16:10 | 48.40645 | -46.51911 | 34142 ft | 527 kts | 66° |
| 2026-05-05 16:10 | 48.43778 | -46.41926 | 34142 ft | 527 kts | 66° |
| 2026-05-05 16:11 | 48.46394 | -46.33603 | 34146 ft | 527 kts | 66° |
| 2026-05-05 16:12 | 48.52675 | -46.13661 | 34148 ft | 527 kts | 66° |
| 2026-05-05 16:13 | 48.60545 | -45.88755 | 34142 ft | 526 kts | 66° |
| 2026-05-05 16:13 | 48.63716 | -45.78749 | 34155 ft | 526 kts | 66° |
| 2026-05-05 16:14 | 48.70037 | -45.58847 | 34157 ft | 525 kts | 66° |
| 2026-05-05 16:15 | 48.76377 | -45.38941 | 34154 ft | 524 kts | 66° |
| 2026-05-05 16:16 | 48.82697 | -45.19134 | 34159 ft | 523 kts | 66° |
| 2026-05-05 16:17 | 48.87471 | -45.04178 | 34161 ft | 523 kts | 66° |
| 2026-05-05 16:18 | 48.92228 | -44.89270 | 34162 ft | 524 kts | 66° |
| 2026-05-05 16:19 | 48.96999 | -44.74298 | 34173 ft | 524 kts | 66° |
| 2026-05-05 16:19 | 49.01768 | -44.59313 | 34176 ft | 524 kts | 66° |
| 2026-05-05 16:20 | 49.08121 | -44.39305 | 34187 ft | 525 kts | 67° |
| 2026-05-05 16:22 | 49.16057 | -44.14202 | 34193 ft | 525 kts | 67° |
| 2026-05-05 16:23 | 49.22375 | -43.94086 | 34196 ft | 525 kts | 67° |
| 2026-05-05 16:23 | 49.27083 | -43.78965 | 34192 ft | 524 kts | 67° |
| 2026-05-05 16:24 | 49.30196 | -43.68909 | 34182 ft | 524 kts | 67° |
| 2026-05-05 16:25 | 49.34862 | -43.53751 | 34208 ft | 524 kts | 67° |
| 2026-05-05 16:25 | 49.39515 | -43.38540 | 34206 ft | 524 kts | 67° |
| 2026-05-05 16:26 | 49.45688 | -43.18220 | 34209 ft | 525 kts | 67° |
| 2026-05-05 16:27 | 49.48761 | -43.08042 | 34202 ft | 525 kts | 67° |
| 2026-05-05 16:27 | 49.51823 | -42.97863 | 34214 ft | 525 kts | 67° |
| 2026-05-05 16:28 | 49.54872 | -42.87682 | 34206 ft | 525 kts | 67° |
| 2026-05-05 16:28 | 49.57911 | -42.77496 | 34218 ft | 525 kts | 67° |
| 2026-05-05 16:29 | 49.60949 | -42.67270 | 34218 ft | 525 kts | 67° |
| 2026-05-05 16:29 | 49.63969 | -42.57056 | 34219 ft | 524 kts | 67° |
| 2026-05-05 16:30 | 49.67002 | -42.46754 | 34209 ft | 524 kts | 67° |
| 2026-05-05 16:30 | 49.69999 | -42.36517 | 34221 ft | 524 kts | 67° |
| 2026-05-05 16:31 | 49.72986 | -42.26266 | 34215 ft | 523 kts | 67° |
| 2026-05-05 16:31 | 49.75952 | -42.16023 | 34224 ft | 523 kts | 67° |
| 2026-05-05 16:32 | 49.78917 | -42.05719 | 34221 ft | 523 kts | 67° |
| 2026-05-05 16:32 | 49.81857 | -41.95434 | 34232 ft | 522 kts | 67° |
| 2026-05-05 16:33 | 49.84778 | -41.85144 | 34222 ft | 522 kts | 67° |
| 2026-05-05 16:33 | 49.87685 | -41.74835 | 34239 ft | 522 kts | 67° |
| 2026-05-05 16:34 | 49.90566 | -41.64553 | 34228 ft | 521 kts | 67° |
| 2026-05-05 16:34 | 49.93440 | -41.54226 | 34234 ft | 521 kts | 67° |
| 2026-05-05 16:35 | 49.96300 | -41.43884 | 34231 ft | 520 kts | 67° |
| 2026-05-05 16:35 | 49.99136 | -41.33569 | 34238 ft | 519 kts | 67° |
| 2026-05-05 16:36 | 50.01958 | -41.23239 | 34229 ft | 519 kts | 67° |
| 2026-05-05 16:36 | 50.04764 | -41.12898 | 34247 ft | 518 kts | 67° |
| 2026-05-05 16:37 | 50.07549 | -41.02578 | 34237 ft | 518 kts | 67° |
| 2026-05-05 16:37 | 50.10324 | -40.92223 | 34248 ft | 518 kts | 67° |
| 2026-05-05 16:38 | 50.13085 | -40.81859 | 34239 ft | 517 kts | 67° |
| 2026-05-05 16:38 | 50.15825 | -40.71494 | 34247 ft | 517 kts | 68° |
| 2026-05-05 16:39 | 50.18534 | -40.61167 | 34239 ft | 516 kts | 67° |
| 2026-05-05 16:39 | 50.21245 | -40.50743 | 34248 ft | 516 kts | 68° |
| 2026-05-05 16:40 | 50.23928 | -40.40352 | 34241 ft | 515 kts | 68° |
| 2026-05-05 16:40 | 50.26580 | -40.30002 | 34250 ft | 515 kts | 68° |
| 2026-05-05 16:41 | 50.29217 | -40.19632 | 34244 ft | 514 kts | 68° |
| 2026-05-05 16:41 | 50.31848 | -40.09196 | 34254 ft | 514 kts | 68° |
| 2026-05-05 16:42 | 50.34496 | -39.98768 | 34637 ft | 519 kts | 70° |
| 2026-05-05 16:42 | 50.35923 | -39.93596 | 34470 ft | 524 kts | 68° |
| 2026-05-05 16:42 | 50.37409 | -39.88353 | 34376 ft | 524 kts | 68° |
| 2026-05-05 16:43 | 50.40380 | -39.77976 | 34264 ft | 521 kts | 68° |
| 2026-05-05 16:43 | 50.43343 | -39.67679 | 34251 ft | 518 kts | 68° |
| 2026-05-05 16:44 | 50.46296 | -39.57421 | 34247 ft | 516 kts | 68° |
| 2026-05-05 16:44 | 50.49245 | -39.47165 | 34251 ft | 516 kts | 68° |
| 2026-05-05 16:45 | 50.52208 | -39.36837 | 34252 ft | 517 kts | 68° |
| 2026-05-05 16:45 | 50.55154 | -39.26540 | 34252 ft | 518 kts | 68° |
| 2026-05-05 16:46 | 50.58103 | -39.16205 | 34265 ft | 519 kts | 68° |
| 2026-05-05 16:46 | 50.61048 | -39.05856 | 34255 ft | 520 kts | 68° |
| 2026-05-05 16:47 | 50.62226 | -39.00494 | 34243 ft | 517 kts | 81° |
| 2026-05-05 16:47 | 50.62838 | -38.94888 | 34261 ft | 517 kts | 86° |
| 2026-05-05 16:47 | 50.63672 | -38.83605 | 34255 ft | 521 kts | 88° |
| 2026-05-05 16:48 | 50.64415 | -38.72296 | 34243 ft | 519 kts | 88° |
| 2026-05-05 16:48 | 50.65135 | -38.61037 | 34247 ft | 518 kts | 88° |
| 2026-05-05 16:49 | 50.65843 | -38.49769 | 34254 ft | 517 kts | 88° |
| 2026-05-05 16:49 | 50.66547 | -38.38420 | 34258 ft | 517 kts | 88° |
| 2026-05-05 16:50 | 50.67234 | -38.27164 | 34258 ft | 517 kts | 88° |
| 2026-05-05 16:50 | 50.67916 | -38.15852 | 34258 ft | 517 kts | 88° |
| 2026-05-05 16:51 | 50.68587 | -38.04581 | 34260 ft | 517 kts | 88° |
| 2026-05-05 16:51 | 50.69245 | -37.93352 | 34258 ft | 517 kts | 88° |
| 2026-05-05 16:52 | 50.69900 | -37.82015 | 34259 ft | 517 kts | 88° |
| 2026-05-05 16:52 | 50.70541 | -37.70726 | 34259 ft | 517 kts | 88° |
| 2026-05-05 16:53 | 50.71170 | -37.59464 | 34260 ft | 517 kts | 88° |
| 2026-05-05 16:53 | 50.71792 | -37.48123 | 34260 ft | 517 kts | 88° |
| 2026-05-05 16:54 | 50.72401 | -37.36839 | 34259 ft | 517 kts | 88° |
| 2026-05-05 16:54 | 50.73001 | -37.25505 | 34257 ft | 517 kts | 88° |
| 2026-05-05 16:55 | 50.73586 | -37.14225 | 34260 ft | 517 kts | 89° |
| 2026-05-05 16:55 | 50.74162 | -37.02917 | 34261 ft | 517 kts | 89° |
| 2026-05-05 16:56 | 50.74727 | -36.91572 | 34264 ft | 517 kts | 89° |
| 2026-05-05 16:56 | 50.75276 | -36.80296 | 34260 ft | 517 kts | 89° |
| 2026-05-05 16:57 | 50.75817 | -36.68929 | 34260 ft | 517 kts | 89° |
| 2026-05-05 16:57 | 50.76343 | -36.57627 | 34256 ft | 517 kts | 89° |
| 2026-05-05 16:58 | 50.76770 | -36.48227 | 34259 ft | 517 kts | 89° |
| 2026-05-05 16:58 | 50.77274 | -36.36919 | 34257 ft | 516 kts | 89° |
| 2026-05-05 16:59 | 50.77765 | -36.25608 | 34254 ft | 516 kts | 89° |
| 2026-05-05 16:59 | 50.78249 | -36.14246 | 34252 ft | 516 kts | 89° |
| 2026-05-05 17:00 | 50.78717 | -36.02997 | 34250 ft | 516 kts | 89° |
| 2026-05-05 17:00 | 50.79175 | -35.91695 | 34257 ft | 516 kts | 89° |
| 2026-05-05 17:01 | 50.79620 | -35.80402 | 34261 ft | 515 kts | 89° |
| 2026-05-05 17:01 | 50.80049 | -35.69097 | 34248 ft | 513 kts | 89° |
| 2026-05-05 17:02 | 50.80461 | -35.57854 | 34248 ft | 513 kts | 89° |
| 2026-05-05 17:02 | 50.80861 | -35.46555 | 34250 ft | 512 kts | 89° |
| 2026-05-05 17:03 | 50.81246 | -35.35333 | 34245 ft | 512 kts | 89° |
| 2026-05-05 17:03 | 50.81617 | -35.24155 | 34247 ft | 511 kts | 89° |
| 2026-05-05 17:04 | 50.81978 | -35.12910 | 34241 ft | 511 kts | 89° |
| 2026-05-05 17:04 | 50.82328 | -35.01664 | 34241 ft | 511 kts | 89° |
| 2026-05-05 17:05 | 50.82595 | -34.90471 | 33960 ft | 518 kts | 86° |
| 2026-05-05 17:05 | 50.82417 | -34.84720 | 34122 ft | 523 kts | 88° |
| 2026-05-05 17:05 | 50.82148 | -34.78952 | 34189 ft | 528 kts | 89° |
| 2026-05-05 17:06 | 50.81543 | -34.67315 | 34242 ft | 536 kts | 89° |
| 2026-05-05 17:06 | 50.80919 | -34.55538 | 34245 ft | 541 kts | 89° |
| 2026-05-05 17:07 | 50.80279 | -34.43678 | 34231 ft | 539 kts | 90° |
| 2026-05-05 17:07 | 50.79637 | -34.31926 | 34234 ft | 538 kts | 89° |
| 2026-05-05 17:08 | 50.78986 | -34.20092 | 34244 ft | 539 kts | 90° |
| 2026-05-05 17:08 | 50.78347 | -34.08349 | 34240 ft | 539 kts | 90° |
| 2026-05-05 17:09 | 50.77709 | -33.96487 | 34243 ft | 538 kts | 90° |
| 2026-05-05 17:09 | 50.77091 | -33.84755 | 34231 ft | 536 kts | 90° |
| 2026-05-05 17:10 | 50.76484 | -33.73021 | 34232 ft | 536 kts | 90° |
| 2026-05-05 17:10 | 50.75891 | -33.61320 | 34245 ft | 535 kts | 90° |
| 2026-05-05 17:11 | 50.75310 | -33.49623 | 34237 ft | 534 kts | 90° |
| 2026-05-05 17:11 | 50.74754 | -33.38003 | 34245 ft | 532 kts | 90° |
| 2026-05-05 17:12 | 50.74216 | -33.26295 | 34249 ft | 531 kts | 90° |
| 2026-05-05 17:12 | 50.73716 | -33.14782 | 34245 ft | 528 kts | 90° |
| 2026-05-05 17:13 | 50.73243 | -33.03242 | 34253 ft | 526 kts | 90° |
| 2026-05-05 17:13 | 50.72799 | -32.91707 | 34254 ft | 524 kts | 90° |
| 2026-05-05 17:14 | 50.72385 | -32.80235 | 34259 ft | 522 kts | 90° |
| 2026-05-05 17:14 | 50.71999 | -32.68850 | 34256 ft | 521 kts | 90° |
| 2026-05-05 17:15 | 50.71634 | -32.57405 | 34263 ft | 519 kts | 90° |
| 2026-05-05 17:15 | 50.71294 | -32.46060 | 34261 ft | 517 kts | 90° |
| 2026-05-05 17:16 | 50.70973 | -32.34769 | 34270 ft | 515 kts | 90° |
| 2026-05-05 17:16 | 50.70672 | -32.23478 | 34273 ft | 514 kts | 90° |
| 2026-05-05 17:17 | 50.70391 | -32.12258 | 34272 ft | 512 kts | 91° |
| 2026-05-05 17:17 | 50.70133 | -32.01052 | 34277 ft | 510 kts | 91° |
| 2026-05-05 17:18 | 50.69895 | -31.89830 | 34282 ft | 509 kts | 91° |
| 2026-05-05 17:18 | 50.69681 | -31.78714 | 34288 ft | 507 kts | 91° |
| 2026-05-05 17:19 | 50.69490 | -31.67640 | 34288 ft | 505 kts | 91° |
| 2026-05-05 17:19 | 50.69319 | -31.56624 | 34294 ft | 504 kts | 91° |
| 2026-05-05 17:20 | 50.69163 | -31.45616 | 34296 ft | 502 kts | 91° |
| 2026-05-05 17:20 | 50.69017 | -31.34577 | 34299 ft | 501 kts | 91° |
| 2026-05-05 17:21 | 50.68880 | -31.23606 | 34304 ft | 500 kts | 91° |
| 2026-05-05 17:22 | 50.68687 | -31.07251 | 34306 ft | 498 kts | 91° |
| 2026-05-05 17:22 | 50.68565 | -30.96339 | 34308 ft | 497 kts | 91° |
| 2026-05-05 17:23 | 50.68441 | -30.85385 | 34313 ft | 497 kts | 91° |
| 2026-05-05 17:23 | 50.68314 | -30.74532 | 34313 ft | 496 kts | 91° |
| 2026-05-05 17:24 | 50.68188 | -30.63673 | 34316 ft | 496 kts | 91° |
| 2026-05-05 17:24 | 50.68059 | -30.52825 | 34319 ft | 495 kts | 91° |
| 2026-05-05 17:25 | 50.67927 | -30.41927 | 34322 ft | 495 kts | 91° |
| 2026-05-05 17:25 | 50.67792 | -30.31116 | 34328 ft | 494 kts | 91° |
| 2026-05-05 17:26 | 50.67651 | -30.20299 | 34328 ft | 494 kts | 91° |
| 2026-05-05 17:26 | 50.67504 | -30.09479 | 34332 ft | 494 kts | 91° |
| 2026-05-05 17:27 | 50.67349 | -29.98632 | 34330 ft | 493 kts | 91° |
| 2026-05-05 17:27 | 50.67189 | -29.87849 | 34337 ft | 493 kts | 91° |
| 2026-05-05 17:28 | 50.67022 | -29.77068 | 34337 ft | 493 kts | 91° |
| 2026-05-05 17:28 | 50.66847 | -29.66227 | 34341 ft | 492 kts | 91° |
| 2026-05-05 17:29 | 50.66667 | -29.55499 | 34344 ft | 493 kts | 91° |
| 2026-05-05 17:29 | 50.66478 | -29.44651 | 34343 ft | 493 kts | 91° |
| 2026-05-05 17:30 | 50.66281 | -29.33842 | 34342 ft | 494 kts | 91° |
| 2026-05-05 17:30 | 50.66075 | -29.23041 | 34346 ft | 494 kts | 91° |
| 2026-05-05 17:31 | 50.65817 | -29.12262 | 34351 ft | 495 kts | 91° |
| 2026-05-05 17:31 | 50.65492 | -29.01398 | 34357 ft | 497 kts | 91° |
| 2026-05-05 17:32 | 50.65132 | -28.90448 | 34356 ft | 498 kts | 91° |
| 2026-05-05 17:32 | 50.64747 | -28.79593 | 34356 ft | 500 kts | 91° |
| 2026-05-05 17:33 | 50.64331 | -28.68602 | 34360 ft | 501 kts | 92° |
| 2026-05-05 17:33 | 50.63894 | -28.57664 | 34359 ft | 503 kts | 92° |
| 2026-05-05 17:34 | 50.63432 | -28.46707 | 34359 ft | 504 kts | 92° |
| 2026-05-05 17:34 | 50.62941 | -28.35660 | 34360 ft | 505 kts | 92° |
| 2026-05-05 17:35 | 50.62423 | -28.24646 | 34365 ft | 505 kts | 92° |
| 2026-05-05 17:35 | 50.61873 | -28.13552 | 34364 ft | 506 kts | 92° |
| 2026-05-05 17:36 | 50.61296 | -28.02533 | 34366 ft | 506 kts | 92° |
| 2026-05-05 17:36 | 50.60692 | -27.91554 | 34369 ft | 507 kts | 92° |
| 2026-05-05 17:37 | 50.60055 | -27.80494 | 34370 ft | 508 kts | 92° |
| 2026-05-05 17:37 | 50.59390 | -27.69413 | 34368 ft | 509 kts | 92° |
| 2026-05-05 17:38 | 50.58700 | -27.58352 | 34368 ft | 510 kts | 92° |
| 2026-05-05 17:38 | 50.57977 | -27.47187 | 34370 ft | 511 kts | 92° |
| 2026-05-05 17:39 | 50.57231 | -27.36095 | 34371 ft | 512 kts | 92° |
| 2026-05-05 17:39 | 50.56452 | -27.24905 | 34374 ft | 513 kts | 92° |
| 2026-05-05 17:40 | 50.55656 | -27.13770 | 34369 ft | 514 kts | 92° |
| 2026-05-05 17:40 | 50.54839 | -27.02594 | 34365 ft | 515 kts | 92° |
| 2026-05-05 17:41 | 50.54006 | -26.91424 | 34370 ft | 516 kts | 92° |
| 2026-05-05 17:41 | 50.53151 | -26.80163 | 34373 ft | 517 kts | 92° |
| 2026-05-05 17:42 | 50.52284 | -26.68967 | 34374 ft | 518 kts | 92° |
| 2026-05-05 17:42 | 50.51400 | -26.57711 | 34374 ft | 519 kts | 92° |
| 2026-05-05 17:43 | 50.50503 | -26.46465 | 34375 ft | 519 kts | 92° |
| 2026-05-05 17:43 | 50.49594 | -26.35217 | 34370 ft | 519 kts | 93° |
| 2026-05-05 17:44 | 50.48672 | -26.23954 | 34374 ft | 519 kts | 93° |
| 2026-05-05 17:44 | 50.47744 | -26.12743 | 34373 ft | 519 kts | 93° |
| 2026-05-05 17:45 | 50.46803 | -26.01510 | 34375 ft | 520 kts | 93° |
| 2026-05-05 17:45 | 50.45852 | -25.90237 | 34370 ft | 520 kts | 93° |
| 2026-05-05 17:46 | 50.44903 | -25.79032 | 34369 ft | 520 kts | 93° |
| 2026-05-05 17:46 | 50.43946 | -25.67790 | 34369 ft | 520 kts | 93° |
| 2026-05-05 17:47 | 50.43146 | -25.58421 | 34371 ft | 520 kts | 93° |
| 2026-05-05 17:47 | 50.42177 | -25.47124 | 34375 ft | 520 kts | 93° |
| 2026-05-05 17:48 | 50.41213 | -25.35932 | 34366 ft | 520 kts | 93° |
| 2026-05-05 17:48 | 50.40247 | -25.24728 | 34362 ft | 519 kts | 93° |
| 2026-05-05 17:49 | 50.39282 | -25.13536 | 34364 ft | 519 kts | 93° |
| 2026-05-05 17:49 | 50.38315 | -25.02332 | 34364 ft | 518 kts | 93° |
| 2026-05-05 17:50 | 50.37344 | -24.91090 | 34368 ft | 519 kts | 94° |
| 2026-05-05 17:50 | 50.36378 | -24.79903 | 34369 ft | 519 kts | 94° |
| 2026-05-05 17:51 | 50.35415 | -24.68765 | 34372 ft | 519 kts | 94° |
| 2026-05-05 17:51 | 50.34445 | -24.57529 | 34371 ft | 518 kts | 94° |
| 2026-05-05 17:52 | 50.33480 | -24.46341 | 34377 ft | 518 kts | 94° |
| 2026-05-05 17:52 | 50.32519 | -24.35165 | 34376 ft | 518 kts | 94° |
| 2026-05-05 17:53 | 50.31561 | -24.24018 | 34375 ft | 518 kts | 94° |
| 2026-05-05 17:53 | 50.30608 | -24.12890 | 34372 ft | 518 kts | 94° |
| 2026-05-05 17:54 | 50.29649 | -24.01684 | 34375 ft | 517 kts | 94° |
| 2026-05-05 17:54 | 50.28701 | -23.90593 | 34377 ft | 517 kts | 94° |
| 2026-05-05 17:55 | 50.27751 | -23.79447 | 34373 ft | 517 kts | 94° |
| 2026-05-05 17:55 | 50.26806 | -23.68340 | 34377 ft | 516 kts | 94° |
| 2026-05-05 17:56 | 50.25860 | -23.57192 | 34378 ft | 516 kts | 94° |
| 2026-05-05 17:56 | 50.24922 | -23.46127 | 34376 ft | 516 kts | 94° |
| 2026-05-05 17:57 | 50.23980 | -23.34985 | 34374 ft | 515 kts | 94° |
| 2026-05-05 17:57 | 50.23048 | -23.23935 | 34372 ft | 515 kts | 94° |
| 2026-05-05 17:58 | 50.22111 | -23.12797 | 34372 ft | 514 kts | 94° |
| 2026-05-05 17:58 | 50.21181 | -23.01737 | 34371 ft | 514 kts | 94° |
| 2026-05-05 17:59 | 50.20253 | -22.90688 | 34369 ft | 514 kts | 94° |
| 2026-05-05 17:59 | 50.19331 | -22.79695 | 34368 ft | 513 kts | 94° |
| 2026-05-05 18:00 | 50.18404 | -22.68606 | 34362 ft | 512 kts | 94° |
| 2026-05-05 18:00 | 50.17488 | -22.57616 | 34369 ft | 512 kts | 95° |
| 2026-05-05 18:01 | 50.16568 | -22.46569 | 34377 ft | 511 kts | 95° |
| 2026-05-05 18:01 | 50.15656 | -22.35597 | 34370 ft | 511 kts | 95° |
| 2026-05-05 18:02 | 50.14748 | -22.24614 | 34363 ft | 510 kts | 95° |
| 2026-05-05 18:02 | 50.13844 | -22.13642 | 34367 ft | 510 kts | 95° |
| 2026-05-05 18:03 | 50.12950 | -22.02760 | 34364 ft | 509 kts | 95° |
| 2026-05-05 18:03 | 50.12052 | -21.91792 | 34366 ft | 508 kts | 95° |
| 2026-05-05 18:04 | 50.11162 | -21.80916 | 34362 ft | 508 kts | 95° |
| 2026-05-05 18:04 | 50.10270 | -21.69966 | 34361 ft | 507 kts | 95° |
| 2026-05-05 18:05 | 50.09390 | -21.59087 | 34359 ft | 506 kts | 95° |
| 2026-05-05 18:05 | 50.08521 | -21.48280 | 34362 ft | 505 kts | 95° |
| 2026-05-05 18:06 | 50.07654 | -21.37403 | 34361 ft | 504 kts | 95° |
| 2026-05-05 18:06 | 50.06799 | -21.26585 | 34360 ft | 503 kts | 95° |
| 2026-05-05 18:07 | 50.05953 | -21.15789 | 34361 ft | 502 kts | 95° |
| 2026-05-05 18:07 | 50.05119 | -21.05033 | 34358 ft | 501 kts | 95° |
| 2026-05-05 18:08 | 50.04287 | -20.94227 | 34352 ft | 500 kts | 95° |
| 2026-05-05 18:08 | 50.03469 | -20.83500 | 34355 ft | 499 kts | 95° |
| 2026-05-05 18:09 | 50.02658 | -20.72797 | 34354 ft | 499 kts | 95° |
| 2026-05-05 18:09 | 50.01854 | -20.62092 | 34358 ft | 498 kts | 95° |
| 2026-05-05 18:10 | 50.01062 | -20.51441 | 34353 ft | 497 kts | 95° |
| 2026-05-05 18:10 | 50.00279 | -20.40727 | 34349 ft | 497 kts | 95° |
| 2026-05-05 18:11 | 49.99516 | -20.30086 | 34351 ft | 496 kts | 96° |
| 2026-05-05 18:11 | 49.98765 | -20.19432 | 34348 ft | 495 kts | 96° |
| 2026-05-05 18:12 | 49.98034 | -20.08834 | 34352 ft | 495 kts | 96° |
| 2026-05-05 18:12 | 49.97313 | -19.98203 | 34346 ft | 494 kts | 96° |
| 2026-05-05 18:13 | 49.96600 | -19.87564 | 34346 ft | 493 kts | 96° |
| 2026-05-05 18:13 | 49.95898 | -19.76988 | 34347 ft | 492 kts | 96° |
| 2026-05-05 18:14 | 49.95203 | -19.66425 | 34348 ft | 492 kts | 96° |
| 2026-05-05 18:14 | 49.94513 | -19.55877 | 34344 ft | 491 kts | 96° |
| 2026-05-05 18:15 | 49.93826 | -19.45363 | 34341 ft | 491 kts | 96° |
| 2026-05-05 18:15 | 49.93128 | -19.34778 | 34341 ft | 491 kts | 96° |
| 2026-05-05 18:16 | 49.92430 | -19.24290 | 34338 ft | 490 kts | 96° |
| 2026-05-05 18:16 | 49.91721 | -19.13786 | 34336 ft | 490 kts | 96° |
| 2026-05-05 18:17 | 49.90999 | -19.03207 | 34335 ft | 490 kts | 96° |
| 2026-05-05 18:17 | 49.90274 | -18.92733 | 34338 ft | 490 kts | 96° |
| 2026-05-05 18:18 | 49.89538 | -18.82258 | 34335 ft | 490 kts | 96° |
| 2026-05-05 18:18 | 49.88791 | -18.71770 | 34333 ft | 490 kts | 96° |
| 2026-05-05 18:19 | 49.88035 | -18.61280 | 34330 ft | 490 kts | 96° |
| 2026-05-05 18:19 | 49.87266 | -18.50728 | 34326 ft | 490 kts | 96° |
| 2026-05-05 18:20 | 49.86490 | -18.40233 | 34324 ft | 490 kts | 96° |
| 2026-05-05 18:20 | 49.85707 | -18.29745 | 34326 ft | 490 kts | 96° |
| 2026-05-05 18:21 | 49.84929 | -18.19325 | 34321 ft | 490 kts | 96° |
| 2026-05-05 18:21 | 49.84144 | -18.08817 | 34319 ft | 489 kts | 96° |
| 2026-05-05 18:22 | 49.83366 | -17.98372 | 34319 ft | 489 kts | 96° |
| 2026-05-05 18:22 | 49.82588 | -17.87900 | 34318 ft | 489 kts | 96° |
| 2026-05-05 18:23 | 49.81808 | -17.77384 | 34320 ft | 489 kts | 96° |
| 2026-05-05 18:23 | 49.81035 | -17.66943 | 34313 ft | 489 kts | 96° |
| 2026-05-05 18:24 | 49.80266 | -17.56506 | 34309 ft | 489 kts | 97° |
| 2026-05-05 18:24 | 49.79502 | -17.46073 | 34311 ft | 489 kts | 97° |
| 2026-05-05 18:25 | 49.78736 | -17.35581 | 34305 ft | 489 kts | 97° |
| 2026-05-05 18:25 | 49.77978 | -17.25168 | 34308 ft | 489 kts | 97° |
| 2026-05-05 18:26 | 49.77214 | -17.14713 | 34303 ft | 488 kts | 97° |
| 2026-05-05 18:26 | 49.76450 | -17.04280 | 34301 ft | 488 kts | 97° |
| 2026-05-05 18:27 | 49.75684 | -16.93850 | 34296 ft | 488 kts | 97° |
| 2026-05-05 18:27 | 49.74918 | -16.83436 | 34295 ft | 488 kts | 97° |
| 2026-05-05 18:28 | 49.73766 | -16.67806 | 34292 ft | 488 kts | 97° |
| 2026-05-05 18:28 | 49.72993 | -16.57391 | 34289 ft | 488 kts | 97° |
| 2026-05-05 18:29 | 49.72213 | -16.46924 | 34289 ft | 488 kts | 97° |
| 2026-05-05 18:29 | 49.71432 | -16.36496 | 34286 ft | 489 kts | 97° |
| 2026-05-05 18:30 | 49.70648 | -16.26085 | 34280 ft | 489 kts | 97° |
| 2026-05-05 18:30 | 49.69862 | -16.15700 | 34282 ft | 489 kts | 97° |
| 2026-05-05 18:31 | 49.69202 | -16.07033 | 34278 ft | 489 kts | 97° |
| 2026-05-05 18:31 | 49.68398 | -15.96577 | 34276 ft | 489 kts | 97° |
| 2026-05-05 18:32 | 49.67587 | -15.86171 | 34278 ft | 488 kts | 97° |
| 2026-05-05 18:32 | 49.66770 | -15.75794 | 34289 ft | 488 kts | 97° |
| 2026-05-05 18:33 | 49.65941 | -15.65361 | 34290 ft | 487 kts | 97° |
| 2026-05-05 18:33 | 49.65111 | -15.55014 | 34289 ft | 487 kts | 97° |
| 2026-05-05 18:34 | 49.64271 | -15.44661 | 34288 ft | 487 kts | 97° |
| 2026-05-05 18:34 | 49.63416 | -15.34250 | 34289 ft | 487 kts | 97° |
| 2026-05-05 18:35 | 49.62558 | -15.23908 | 34281 ft | 487 kts | 97° |
| 2026-05-05 18:35 | 49.61683 | -15.13493 | 34281 ft | 487 kts | 97° |
| 2026-05-05 18:36 | 49.60805 | -15.03150 | 34279 ft | 487 kts | 97° |
| 2026-05-05 18:36 | 49.59921 | -14.92838 | 34280 ft | 487 kts | 97° |
| 2026-05-05 18:37 | 49.59022 | -14.82449 | 34275 ft | 487 kts | 98° |
| 2026-05-05 18:37 | 49.58119 | -14.72129 | 34256 ft | 487 kts | 98° |
| 2026-05-05 18:38 | 49.57663 | -14.66964 | 34596 ft | 481 kts | 97° |
| 2026-05-05 18:38 | 49.57208 | -14.61873 | 34936 ft | 478 kts | 97° |
| 2026-05-05 18:38 | 49.56753 | -14.56855 | 35290 ft | 475 kts | 97° |
| 2026-05-05 18:38 | 49.56289 | -14.51819 | 35651 ft | 472 kts | 97° |
| 2026-05-05 18:39 | 49.55827 | -14.46878 | 36008 ft | 469 kts | 97° |
| 2026-05-05 18:39 | 49.55353 | -14.41899 | 36379 ft | 466 kts | 98° |
| 2026-05-05 18:39 | 49.54876 | -14.36959 | 36746 ft | 463 kts | 98° |
| 2026-05-05 18:39 | 49.54401 | -14.32117 | 37020 ft | 462 kts | 98° |
| 2026-05-05 18:40 | 49.53915 | -14.27222 | 37308 ft | 461 kts | 98° |
| 2026-05-05 18:40 | 49.53423 | -14.22323 | 37597 ft | 460 kts | 98° |
| 2026-05-05 18:40 | 49.52928 | -14.17458 | 37887 ft | 458 kts | 98° |
| 2026-05-05 18:40 | 49.52435 | -14.12657 | 38179 ft | 457 kts | 98° |
| 2026-05-05 18:41 | 49.51931 | -14.07805 | 38485 ft | 455 kts | 98° |
| 2026-05-05 18:41 | 49.51432 | -14.03043 | 38784 ft | 453 kts | 98° |
| 2026-05-05 18:41 | 49.50922 | -13.98230 | 39034 ft | 451 kts | 98° |
| 2026-05-05 18:41 | 49.50412 | -13.93452 | 39270 ft | 449 kts | 98° |
| 2026-05-05 18:42 | 49.49909 | -13.88763 | 39504 ft | 447 kts | 98° |
| 2026-05-05 18:42 | 49.49399 | -13.84038 | 39747 ft | 444 kts | 98° |
| 2026-05-05 18:42 | 49.48897 | -13.79421 | 39989 ft | 441 kts | 98° |
| 2026-05-05 18:42 | 49.48388 | -13.74762 | 40228 ft | 439 kts | 98° |
| 2026-05-05 18:43 | 49.47367 | -13.65460 | 40248 ft | 446 kts | 98° |
| 2026-05-05 18:43 | 49.46317 | -13.55914 | 40252 ft | 454 kts | 98° |
| 2026-05-05 18:44 | 49.45260 | -13.46320 | 40249 ft | 461 kts | 98° |
| 2026-05-05 18:44 | 49.44175 | -13.36473 | 40246 ft | 468 kts | 98° |
| 2026-05-05 18:45 | 49.43080 | -13.26536 | 40248 ft | 475 kts | 98° |
| 2026-05-05 18:45 | 49.41974 | -13.16524 | 40237 ft | 481 kts | 98° |
| 2026-05-05 18:46 | 49.40850 | -13.06351 | 40234 ft | 485 kts | 98° |
| 2026-05-05 18:46 | 49.39714 | -12.96102 | 40225 ft | 488 kts | 98° |
| 2026-05-05 18:47 | 49.38577 | -12.85866 | 40217 ft | 489 kts | 98° |
| 2026-05-05 18:47 | 49.37426 | -12.75534 | 40209 ft | 487 kts | 98° |
| 2026-05-05 18:48 | 49.36283 | -12.65320 | 40222 ft | 486 kts | 98° |
| 2026-05-05 18:48 | 49.35136 | -12.55112 | 40214 ft | 486 kts | 98° |
| 2026-05-05 18:49 | 49.33981 | -12.44871 | 40219 ft | 486 kts | 98° |
| 2026-05-05 18:49 | 49.32833 | -12.34730 | 40213 ft | 487 kts | 98° |
| 2026-05-05 18:50 | 49.31667 | -12.24447 | 40216 ft | 487 kts | 99° |
| 2026-05-05 18:50 | 49.30507 | -12.14254 | 40203 ft | 486 kts | 99° |
| 2026-05-05 18:51 | 49.29347 | -12.04083 | 40208 ft | 485 kts | 99° |
| 2026-05-05 18:51 | 49.28179 | -11.93875 | 40204 ft | 485 kts | 99° |
| 2026-05-05 18:52 | 49.27016 | -11.83738 | 40206 ft | 484 kts | 99° |
| 2026-05-05 18:52 | 49.25851 | -11.73610 | 40205 ft | 484 kts | 99° |
| 2026-05-05 18:53 | 49.24678 | -11.63415 | 40196 ft | 485 kts | 99° |
| 2026-05-05 18:53 | 49.23476 | -11.53288 | 40197 ft | 486 kts | 99° |
| 2026-05-05 18:54 | 49.22227 | -11.43155 | 40193 ft | 485 kts | 100° |
| 2026-05-05 18:54 | 49.20967 | -11.32977 | 40192 ft | 485 kts | 100° |
| 2026-05-05 18:55 | 49.19713 | -11.22870 | 40195 ft | 485 kts | 100° |
| 2026-05-05 18:55 | 49.18449 | -11.12724 | 40189 ft | 485 kts | 100° |
| 2026-05-05 18:56 | 49.17184 | -11.02643 | 40190 ft | 485 kts | 100° |
| 2026-05-05 18:56 | 49.15904 | -10.92522 | 40187 ft | 484 kts | 100° |
| 2026-05-05 18:57 | 49.14623 | -10.82475 | 40188 ft | 483 kts | 100° |
| 2026-05-05 18:57 | 49.13331 | -10.72406 | 40180 ft | 483 kts | 100° |
| 2026-05-05 18:58 | 49.12024 | -10.62305 | 40181 ft | 483 kts | 100° |
| 2026-05-05 18:58 | 49.10715 | -10.52252 | 40179 ft | 482 kts | 100° |
| 2026-05-05 18:59 | 49.09401 | -10.42237 | 40173 ft | 482 kts | 101° |
| 2026-05-05 18:59 | 49.08080 | -10.32237 | 40174 ft | 482 kts | 101° |
| 2026-05-05 19:00 | 49.06746 | -10.22208 | 40167 ft | 483 kts | 101° |
| 2026-05-05 19:00 | 49.05396 | -10.12138 | 40172 ft | 483 kts | 101° |
| 2026-05-05 19:01 | 49.04045 | -10.02120 | 40174 ft | 483 kts | 101° |
| 2026-05-05 19:01 | 49.02690 | -9.92147 | 40170 ft | 483 kts | 101° |
| 2026-05-05 19:02 | 49.01311 | -9.82070 | 40165 ft | 483 kts | 101° |
| 2026-05-05 19:02 | 48.99935 | -9.72079 | 40161 ft | 483 kts | 101° |
| 2026-05-05 19:03 | 48.98553 | -9.62116 | 40163 ft | 483 kts | 101° |
| 2026-05-05 19:03 | 48.97152 | -9.52085 | 40158 ft | 483 kts | 101° |
| 2026-05-05 19:04 | 48.95745 | -9.42078 | 40154 ft | 483 kts | 101° |
| 2026-05-05 19:04 | 48.94329 | -9.32072 | 40154 ft | 483 kts | 101° |
| 2026-05-05 19:05 | 48.92905 | -9.22073 | 40153 ft | 483 kts | 101° |
| 2026-05-05 19:05 | 48.91484 | -9.12169 | 40148 ft | 483 kts | 101° |
| 2026-05-05 19:06 | 48.90041 | -9.02174 | 40148 ft | 482 kts | 101° |
| 2026-05-05 19:06 | 48.88599 | -8.92251 | 40146 ft | 482 kts | 101° |
| 2026-05-05 19:07 | 48.87387 | -8.83956 | 40145 ft | 482 kts | 101° |
| 2026-05-05 19:07 | 48.85683 | -8.72371 | 40142 ft | 481 kts | 101° |
| 2026-05-05 19:08 | 48.84215 | -8.62459 | 40140 ft | 481 kts | 102° |
| 2026-05-05 19:08 | 48.82744 | -8.52592 | 40141 ft | 481 kts | 102° |
| 2026-05-05 19:09 | 48.81259 | -8.42697 | 40137 ft | 480 kts | 102° |
| 2026-05-05 19:09 | 48.79771 | -8.32839 | 40136 ft | 480 kts | 102° |
| 2026-05-05 19:10 | 48.78268 | -8.22946 | 40135 ft | 480 kts | 102° |
| 2026-05-05 19:10 | 48.76761 | -8.13084 | 40134 ft | 480 kts | 102° |
| 2026-05-05 19:11 | 48.75251 | -8.03266 | 40133 ft | 480 kts | 102° |
| 2026-05-05 19:11 | 48.73727 | -7.93419 | 40125 ft | 480 kts | 102° |
| 2026-05-05 19:12 | 48.72187 | -7.83530 | 40128 ft | 480 kts | 102° |
| 2026-05-05 19:12 | 48.70657 | -7.73761 | 40127 ft | 480 kts | 102° |
| 2026-05-05 19:13 | 48.69108 | -7.63930 | 40126 ft | 480 kts | 102° |
| 2026-05-05 19:13 | 48.67548 | -7.54089 | 40118 ft | 480 kts | 102° |
| 2026-05-05 19:14 | 48.65986 | -7.44296 | 40118 ft | 480 kts | 102° |
| 2026-05-05 19:14 | 48.64416 | -7.34503 | 40112 ft | 480 kts | 102° |
| 2026-05-05 19:15 | 48.63094 | -7.26308 | 40115 ft | 480 kts | 102° |
| 2026-05-05 19:15 | 48.61508 | -7.16528 | 40109 ft | 480 kts | 103° |
| 2026-05-05 19:16 | 48.59912 | -7.06747 | 40107 ft | 479 kts | 103° |
| 2026-05-05 19:16 | 48.58304 | -6.96943 | 40107 ft | 479 kts | 103° |
| 2026-05-05 19:17 | 48.56699 | -6.87217 | 40104 ft | 479 kts | 103° |
| 2026-05-05 19:17 | 48.55081 | -6.77468 | 40105 ft | 478 kts | 103° |
| 2026-05-05 19:18 | 48.53458 | -6.67746 | 40099 ft | 478 kts | 103° |
| 2026-05-05 19:18 | 48.51829 | -6.58042 | 40097 ft | 478 kts | 103° |
| 2026-05-05 19:19 | 48.50180 | -6.48275 | 40091 ft | 478 kts | 103° |
| 2026-05-05 19:19 | 48.48535 | -6.38587 | 40090 ft | 478 kts | 103° |
| 2026-05-05 19:20 | 48.46883 | -6.28908 | 40093 ft | 478 kts | 103° |
| 2026-05-05 19:20 | 48.45217 | -6.19202 | 40084 ft | 478 kts | 103° |
| 2026-05-05 19:21 | 48.43543 | -6.09502 | 40079 ft | 478 kts | 104° |
| 2026-05-05 19:21 | 48.41865 | -5.99834 | 40080 ft | 478 kts | 104° |
| 2026-05-05 19:22 | 48.40176 | -5.90159 | 40077 ft | 478 kts | 104° |
| 2026-05-05 19:22 | 48.38481 | -5.80498 | 40074 ft | 478 kts | 104° |
| 2026-05-05 19:23 | 48.36774 | -5.70822 | 40072 ft | 478 kts | 104° |
| 2026-05-05 19:23 | 48.35058 | -5.61153 | 40069 ft | 478 kts | 104° |
| 2026-05-05 19:24 | 48.33333 | -5.51476 | 40069 ft | 478 kts | 104° |
| 2026-05-05 19:24 | 48.31603 | -5.41827 | 40072 ft | 478 kts | 104° |
| 2026-05-05 19:25 | 48.29869 | -5.32213 | 40066 ft | 478 kts | 104° |
| 2026-05-05 19:25 | 48.28123 | -5.22579 | 40063 ft | 478 kts | 104° |
| 2026-05-05 19:26 | 48.26368 | -5.12944 | 40063 ft | 478 kts | 105° |
| 2026-05-05 19:26 | 48.24617 | -5.03383 | 40063 ft | 478 kts | 105° |
| 2026-05-05 19:27 | 48.22843 | -4.93745 | 40060 ft | 478 kts | 105° |
| 2026-05-05 19:27 | 48.21061 | -4.84120 | 40059 ft | 478 kts | 105° |
| 2026-05-05 19:28 | 48.19275 | -4.74518 | 40059 ft | 479 kts | 105° |
| 2026-05-05 19:28 | 48.17484 | -4.64939 | 40061 ft | 479 kts | 105° |
| 2026-05-05 19:29 | 48.15676 | -4.55318 | 40055 ft | 479 kts | 105° |
| 2026-05-05 19:29 | 48.13864 | -4.45731 | 40046 ft | 478 kts | 105° |
| 2026-05-05 19:30 | 48.12047 | -4.36160 | 40042 ft | 478 kts | 105° |
| 2026-05-05 19:30 | 48.10222 | -4.26596 | 40038 ft | 478 kts | 106° |
| 2026-05-05 19:31 | 48.08390 | -4.17045 | 40037 ft | 478 kts | 106° |
| 2026-05-05 19:31 | 48.06544 | -4.07471 | 40037 ft | 478 kts | 106° |
| 2026-05-05 19:32 | 48.04698 | -3.97945 | 40037 ft | 478 kts | 106° |
| 2026-05-05 19:32 | 48.02844 | -3.88421 | 40041 ft | 479 kts | 106° |
| 2026-05-05 19:33 | 48.00983 | -3.78913 | 40039 ft | 479 kts | 106° |
| 2026-05-05 19:33 | 47.99102 | -3.69348 | 40043 ft | 479 kts | 106° |
| 2026-05-05 19:34 | 47.97221 | -3.59830 | 40042 ft | 479 kts | 106° |
| 2026-05-05 19:35 | 47.94368 | -3.45480 | 40043 ft | 479 kts | 107° |
| 2026-05-05 19:35 | 47.92461 | -3.35948 | 40036 ft | 480 kts | 107° |
| 2026-05-05 19:36 | 47.90548 | -3.26431 | 40032 ft | 480 kts | 107° |
| 2026-05-05 19:36 | 47.88629 | -3.16933 | 40032 ft | 481 kts | 107° |
| 2026-05-05 19:37 | 47.86694 | -3.07399 | 40020 ft | 481 kts | 107° |
| 2026-05-05 19:37 | 47.84747 | -2.97856 | 40019 ft | 483 kts | 107° |
| 2026-05-05 19:38 | 47.82789 | -2.88302 | 40009 ft | 482 kts | 107° |
| 2026-05-05 19:38 | 47.80819 | -2.78735 | 40003 ft | 481 kts | 107° |
| 2026-05-05 19:39 | 47.78857 | -2.69253 | 40009 ft | 479 kts | 108° |
| 2026-05-05 19:39 | 47.76895 | -2.59817 | 40008 ft | 479 kts | 108° |
| 2026-05-05 19:40 | 47.74925 | -2.50386 | 40008 ft | 479 kts | 108° |
| 2026-05-05 19:40 | 47.72946 | -2.40953 | 40008 ft | 478 kts | 108° |
| 2026-05-05 19:41 | 47.70958 | -2.31523 | 40006 ft | 478 kts | 108° |
| 2026-05-05 19:41 | 47.68955 | -2.22068 | 40001 ft | 478 kts | 108° |
| 2026-05-05 19:42 | 47.66959 | -2.12687 | 39993 ft | 478 kts | 108° |
| 2026-05-05 19:42 | 47.64950 | -2.03292 | 39986 ft | 479 kts | 108° |
| 2026-05-05 19:43 | 47.62932 | -1.93894 | 39981 ft | 478 kts | 108° |
| 2026-05-05 19:43 | 47.60903 | -1.84487 | 39978 ft | 479 kts | 109° |
| 2026-05-05 19:44 | 47.58864 | -1.75083 | 39972 ft | 479 kts | 109° |
| 2026-05-05 19:44 | 47.56818 | -1.65685 | 39970 ft | 479 kts | 109° |
| 2026-05-05 19:45 | 47.54772 | -1.56331 | 39967 ft | 479 kts | 109° |
| 2026-05-05 19:45 | 47.52713 | -1.46957 | 39966 ft | 479 kts | 109° |
| 2026-05-05 19:46 | 47.50645 | -1.37587 | 39966 ft | 479 kts | 109° |
| 2026-05-05 19:46 | 47.48571 | -1.28227 | 39968 ft | 480 kts | 109° |
| 2026-05-05 19:47 | 47.46480 | -1.18834 | 39970 ft | 480 kts | 109° |
| 2026-05-05 19:47 | 47.44394 | -1.09507 | 39963 ft | 480 kts | 109° |
| 2026-05-05 19:48 | 47.42294 | -1.00161 | 39964 ft | 480 kts | 110° |
| 2026-05-05 19:48 | 47.40183 | -0.90803 | 39964 ft | 480 kts | 110° |
| 2026-05-05 19:49 | 47.38072 | -0.81493 | 39966 ft | 480 kts | 110° |
| 2026-05-05 19:49 | 47.35942 | -0.72131 | 39965 ft | 480 kts | 110° |
| 2026-05-05 19:50 | 47.33820 | -0.62850 | 39962 ft | 480 kts | 110° |
| 2026-05-05 19:50 | 47.31674 | -0.53503 | 39962 ft | 479 kts | 110° |
| 2026-05-05 19:51 | 47.29535 | -0.44227 | 39956 ft | 479 kts | 110° |
| 2026-05-05 19:51 | 47.27382 | -0.34930 | 39958 ft | 479 kts | 110° |
| 2026-05-05 19:52 | 47.25227 | -0.25664 | 39952 ft | 479 kts | 110° |
| 2026-05-05 19:52 | 47.23060 | -0.16387 | 39954 ft | 479 kts | 110° |
| 2026-05-05 19:53 | 47.20894 | -0.07154 | 39954 ft | 479 kts | 110° |
| 2026-05-05 19:53 | 47.18707 | 0.02129 | 39953 ft | 479 kts | 110° |
| 2026-05-05 19:54 | 47.16519 | 0.11374 | 39952 ft | 479 kts | 110° |
| 2026-05-05 19:54 | 47.14333 | 0.20577 | 39949 ft | 479 kts | 110° |
| 2026-05-05 19:55 | 47.12129 | 0.29815 | 39952 ft | 479 kts | 110° |
| 2026-05-05 19:55 | 47.09911 | 0.39074 | 39954 ft | 479 kts | 110° |
| 2026-05-05 19:56 | 47.07697 | 0.48276 | 39959 ft | 480 kts | 111° |
| 2026-05-05 19:56 | 47.05457 | 0.57545 | 39962 ft | 480 kts | 111° |
| 2026-05-05 19:57 | 47.03227 | 0.66739 | 39962 ft | 480 kts | 111° |
| 2026-05-05 19:57 | 47.00981 | 0.75958 | 39952 ft | 480 kts | 111° |
| 2026-05-05 19:58 | 46.98734 | 0.85146 | 39961 ft | 480 kts | 111° |
| 2026-05-05 19:58 | 46.96471 | 0.94359 | 39952 ft | 480 kts | 111° |
| 2026-05-05 19:59 | 46.94203 | 1.03553 | 39952 ft | 480 kts | 111° |
| 2026-05-05 19:59 | 46.91929 | 1.12737 | 39951 ft | 480 kts | 111° |
| 2026-05-05 20:00 | 46.89668 | 1.21834 | 39924 ft | 468 kts | 111° |
| 2026-05-05 20:00 | 46.88566 | 1.26262 | 39694 ft | 458 kts | 111° |
| 2026-05-05 20:00 | 46.87490 | 1.30570 | 39464 ft | 449 kts | 111° |
| 2026-05-05 20:00 | 46.86424 | 1.34830 | 39232 ft | 442 kts | 111° |
| 2026-05-05 20:01 | 46.85375 | 1.39013 | 39002 ft | 434 kts | 112° |
| 2026-05-05 20:01 | 46.84350 | 1.43093 | 38785 ft | 431 kts | 112° |
| 2026-05-05 20:01 | 46.83312 | 1.47208 | 38580 ft | 434 kts | 112° |
| 2026-05-05 20:01 | 46.82261 | 1.51371 | 38331 ft | 438 kts | 112° |
| 2026-05-05 20:02 | 46.81556 | 1.54156 | 38155 ft | 441 kts | 112° |
| 2026-05-05 20:02 | 46.80145 | 1.59730 | 37790 ft | 440 kts | 112° |
| 2026-05-05 20:02 | 46.79438 | 1.62519 | 37622 ft | 439 kts | 112° |
| 2026-05-05 20:02 | 46.78025 | 1.68084 | 37273 ft | 438 kts | 112° |
| 2026-05-05 20:03 | 46.77323 | 1.70844 | 37099 ft | 437 kts | 112° |
| 2026-05-05 20:03 | 46.76258 | 1.75028 | 36840 ft | 436 kts | 112° |
| 2026-05-05 20:03 | 46.75196 | 1.79187 | 36582 ft | 435 kts | 112° |
| 2026-05-05 20:03 | 46.74148 | 1.83285 | 36328 ft | 434 kts | 112° |
| 2026-05-05 20:04 | 46.73092 | 1.87410 | 36092 ft | 433 kts | 112° |
| 2026-05-05 20:04 | 46.72036 | 1.91522 | 35842 ft | 432 kts | 112° |
| 2026-05-05 20:04 | 46.70983 | 1.95618 | 35593 ft | 432 kts | 112° |
| 2026-05-05 20:04 | 46.69926 | 1.99723 | 35355 ft | 431 kts | 112° |
| 2026-05-05 20:05 | 46.68874 | 2.03799 | 35113 ft | 431 kts | 112° |
| 2026-05-05 20:05 | 46.67827 | 2.07849 | 34873 ft | 430 kts | 112° |
| 2026-05-05 20:05 | 46.66764 | 2.11956 | 34641 ft | 430 kts | 113° |
| 2026-05-05 20:05 | 46.65717 | 2.15991 | 34420 ft | 430 kts | 113° |
| 2026-05-05 20:06 | 46.64656 | 2.20073 | 34184 ft | 430 kts | 113° |
| 2026-05-05 20:06 | 46.63603 | 2.24118 | 33959 ft | 430 kts | 113° |
| 2026-05-05 20:06 | 46.62535 | 2.28217 | 33702 ft | 430 kts | 113° |
| 2026-05-05 20:06 | 46.61480 | 2.32254 | 33432 ft | 430 kts | 113° |
| 2026-05-05 20:07 | 46.60411 | 2.36337 | 33160 ft | 430 kts | 113° |
| 2026-05-05 20:07 | 46.59341 | 2.40421 | 32897 ft | 430 kts | 113° |
| 2026-05-05 20:07 | 46.58272 | 2.44490 | 32629 ft | 430 kts | 113° |
| 2026-05-05 20:07 | 46.57205 | 2.48547 | 32363 ft | 430 kts | 113° |
| 2026-05-05 20:08 | 46.56145 | 2.52572 | 32110 ft | 431 kts | 113° |
| 2026-05-05 20:08 | 46.55066 | 2.56658 | 31852 ft | 431 kts | 113° |
| 2026-05-05 20:08 | 46.54000 | 2.60690 | 31599 ft | 431 kts | 114° |
| 2026-05-05 20:08 | 46.52916 | 2.64784 | 31340 ft | 431 kts | 114° |
| 2026-05-05 20:09 | 46.51845 | 2.68818 | 31098 ft | 432 kts | 114° |
| 2026-05-05 20:09 | 46.50758 | 2.72908 | 30848 ft | 432 kts | 114° |
| 2026-05-05 20:09 | 46.49684 | 2.76943 | 30592 ft | 433 kts | 114° |
| 2026-05-05 20:09 | 46.48593 | 2.81034 | 30349 ft | 433 kts | 114° |
| 2026-05-05 20:10 | 46.47501 | 2.85120 | 30116 ft | 433 kts | 114° |
| 2026-05-05 20:10 | 46.46408 | 2.89205 | 29859 ft | 434 kts | 114° |
| 2026-05-05 20:10 | 46.45312 | 2.93294 | 29563 ft | 434 kts | 114° |
| 2026-05-05 20:10 | 46.44226 | 2.97335 | 29284 ft | 436 kts | 114° |
| 2026-05-05 20:11 | 46.43118 | 3.01452 | 29027 ft | 438 kts | 114° |
| 2026-05-05 20:11 | 46.40897 | 3.09685 | 28959 ft | 438 kts | 115° |
| 2026-05-05 20:12 | 46.38672 | 3.17911 | 28953 ft | 438 kts | 115° |
| 2026-05-05 20:12 | 46.36452 | 3.26084 | 28954 ft | 438 kts | 115° |
| 2026-05-05 20:13 | 46.34204 | 3.34332 | 28959 ft | 439 kts | 115° |
| 2026-05-05 20:13 | 46.33091 | 3.38405 | 28794 ft | 440 kts | 115° |
| 2026-05-05 20:13 | 46.31961 | 3.42534 | 28535 ft | 439 kts | 115° |
| 2026-05-05 20:13 | 46.30832 | 3.46653 | 28279 ft | 439 kts | 115° |
| 2026-05-05 20:14 | 46.29715 | 3.50719 | 28038 ft | 440 kts | 115° |
| 2026-05-05 20:14 | 46.28581 | 3.54838 | 27796 ft | 441 kts | 115° |
| 2026-05-05 20:14 | 46.27438 | 3.58985 | 27555 ft | 441 kts | 115° |
| 2026-05-05 20:14 | 46.26314 | 3.63060 | 27316 ft | 441 kts | 115° |
| 2026-05-05 20:15 | 46.25174 | 3.67181 | 27086 ft | 441 kts | 115° |
| 2026-05-05 20:15 | 46.24033 | 3.71301 | 26845 ft | 442 kts | 115° |
| 2026-05-05 20:15 | 46.22882 | 3.75446 | 26606 ft | 442 kts | 115° |
| 2026-05-05 20:15 | 46.21731 | 3.79579 | 26375 ft | 442 kts | 115° |
| 2026-05-05 20:16 | 46.20598 | 3.83648 | 25871 ft | 437 kts | 115° |
| 2026-05-05 20:16 | 46.19471 | 3.87695 | 25214 ft | 426 kts | 115° |
| 2026-05-05 20:16 | 46.18387 | 3.91584 | 24567 ft | 415 kts | 115° |
| 2026-05-05 20:16 | 46.17318 | 3.95410 | 23917 ft | 406 kts | 115° |
| 2026-05-05 20:17 | 46.16270 | 3.99151 | 23235 ft | 398 kts | 115° |
| 2026-05-05 20:17 | 46.15241 | 4.02820 | 22493 ft | 390 kts | 115° |
| 2026-05-05 20:17 | 46.14231 | 4.06411 | 21719 ft | 382 kts | 115° |
| 2026-05-05 20:17 | 46.13253 | 4.09885 | 20970 ft | 375 kts | 115° |
| 2026-05-05 20:18 | 46.12274 | 4.13356 | 20222 ft | 369 kts | 115° |
| 2026-05-05 20:18 | 46.11309 | 4.16771 | 19499 ft | 364 kts | 115° |
| 2026-05-05 20:18 | 46.10369 | 4.20093 | 18801 ft | 359 kts | 115° |
| 2026-05-05 20:18 | 46.09426 | 4.23424 | 18088 ft | 355 kts | 115° |
| 2026-05-05 20:19 | 46.08507 | 4.26665 | 17309 ft | 351 kts | 115° |
| 2026-05-05 20:19 | 46.07588 | 4.29902 | 16674 ft | 344 kts | 115° |
| 2026-05-05 20:19 | 46.06684 | 4.33085 | 16070 ft | 337 kts | 115° |
| 2026-05-05 20:19 | 46.05813 | 4.36146 | 15491 ft | 332 kts | 115° |
| 2026-05-05 20:20 | 46.04941 | 4.39206 | 14913 ft | 327 kts | 115° |
| 2026-05-05 20:20 | 46.04082 | 4.42217 | 14350 ft | 323 kts | 115° |
| 2026-05-05 20:20 | 46.03228 | 4.45208 | 13791 ft | 320 kts | 115° |
| 2026-05-05 20:20 | 46.02384 | 4.48156 | 13220 ft | 317 kts | 115° |
| 2026-05-05 20:21 | 46.01541 | 4.51100 | 13062 ft | 320 kts | 115° |
| 2026-05-05 20:21 | 46.00697 | 4.54039 | 12977 ft | 319 kts | 115° |
| 2026-05-05 20:21 | 45.99851 | 4.56991 | 12959 ft | 317 kts | 115° |
| 2026-05-05 20:21 | 45.99005 | 4.59935 | 12970 ft | 318 kts | 115° |
| 2026-05-05 20:22 | 45.98164 | 4.62855 | 12916 ft | 320 kts | 115° |
| 2026-05-05 20:22 | 45.97310 | 4.65821 | 12499 ft | 319 kts | 115° |
| 2026-05-05 20:22 | 45.96471 | 4.68736 | 11969 ft | 315 kts | 115° |
| 2026-05-05 20:22 | 45.95724 | 4.71686 | 11367 ft | 316 kts | 102° |
| 2026-05-05 20:23 | 45.95865 | 4.74820 | 10817 ft | 318 kts | 72° |
| 2026-05-05 20:23 | 45.97020 | 4.77445 | 10275 ft | 316 kts | 44° |
| 2026-05-05 20:23 | 45.98752 | 4.79360 | 9738 ft | 312 kts | 34° |
| 2026-05-05 20:23 | 46.00554 | 4.81077 | 9182 ft | 307 kts | 33° |
| 2026-05-05 20:24 | 46.02329 | 4.82735 | 8736 ft | 300 kts | 32° |
| 2026-05-05 20:24 | 46.04047 | 4.84336 | 8288 ft | 293 kts | 32° |
| 2026-05-05 20:24 | 46.05750 | 4.85922 | 7849 ft | 288 kts | 32° |
| 2026-05-05 20:24 | 46.07282 | 4.87732 | 7381 ft | 284 kts | 55° |
| 2026-05-05 20:25 | 46.07937 | 4.90313 | 6967 ft | 276 kts | 89° |
| 2026-05-05 20:25 | 46.07498 | 4.92925 | 6554 ft | 267 kts | 125° |
| 2026-05-05 20:25 | 46.06166 | 4.94593 | 6269 ft | 252 kts | 160° |
| 2026-05-05 20:25 | 46.04490 | 4.94773 | 5956 ft | 239 kts | 197° |
| 2026-05-05 20:26 | 46.02932 | 4.94059 | 5673 ft | 231 kts | 201° |
| 2026-05-05 20:26 | 46.01489 | 4.93160 | 5356 ft | 226 kts | 206° |
| 2026-05-05 20:26 | 46.00075 | 4.92179 | 5053 ft | 223 kts | 207° |
| 2026-05-05 20:26 | 45.98680 | 4.91230 | 4757 ft | 221 kts | 206° |
| 2026-05-05 20:27 | 45.97303 | 4.90319 | 4512 ft | 219 kts | 205° |
| 2026-05-05 20:27 | 45.95922 | 4.89422 | 4252 ft | 217 kts | 205° |
| 2026-05-05 20:27 | 45.94541 | 4.88534 | 3996 ft | 216 kts | 205° |
| 2026-05-05 20:27 | 45.93178 | 4.87661 | 3805 ft | 217 kts | 205° |
| 2026-05-05 20:28 | 45.91780 | 4.86823 | 3595 ft | 218 kts | 195° |
| 2026-05-05 20:28 | 45.90283 | 4.86902 | 3389 ft | 217 kts | 165° |
| 2026-05-05 20:28 | 45.88863 | 4.87523 | 3231 ft | 210 kts | 165° |
| 2026-05-05 20:28 | 45.87482 | 4.88118 | 3049 ft | 207 kts | 165° |
| 2026-05-05 20:29 | 45.86093 | 4.88713 | 2872 ft | 209 kts | 165° |
| 2026-05-05 20:29 | 45.84681 | 4.89317 | 2684 ft | 210 kts | 165° |
| 2026-05-05 20:29 | 45.83305 | 4.89907 | 2488 ft | 203 kts | 165° |
| 2026-05-05 20:29 | 45.81996 | 4.90468 | 2294 ft | 189 kts | 165° |
| 2026-05-05 20:30 | 45.80770 | 4.90993 | 2096 ft | 176 kts | 164° |
| 2026-05-05 20:30 | 45.79673 | 4.91462 | 1931 ft | 157 kts | 164° |
| 2026-05-05 20:30 | 45.78668 | 4.91891 | 1810 ft | 153 kts | 164° |
| 2026-05-05 20:30 | 45.77650 | 4.92319 | 1641 ft | 148 kts | 165° |
| 2026-05-05 20:31 | 45.76671 | 4.92716 | 1438 ft | 142 kts | 164° |
| 2026-05-05 20:31 | 45.75756 | 4.93108 | 1203 ft | 135 kts | 164° |
| 2026-05-05 20:31 | 45.74877 | 4.93484 | 987 ft | 128 kts | 163° |
| 2026-05-05 20:31 | 45.74047 | 4.93850 | 818 ft | 121 kts | 163° |
| 2026-05-05 20:32 | 45.73249 | 4.94200 | 672 ft | 119 kts | 163° |
| 2026-05-05 20:32 | 45.72542 | 4.94503 | 660 ft | 74 kts | 164° |
| 2026-05-05 20:32 | 45.72204 | 4.94643 | 666 ft | 41 kts | 163° |
| 2026-05-05 20:32 | 45.72020 | 4.94723 | 668 ft | 14 kts | 163° |
| 2026-05-05 20:33 | 45.71932 | 4.94699 | 669 ft | 14 kts | 235° |
| 2026-05-05 20:33 | 45.71921 | 4.94573 | 668 ft | 13 kts | 293° |
| 2026-05-05 20:33 | 45.71997 | 4.94510 | 667 ft | 13 kts | 342° |
| 2026-05-05 20:33 | 45.72087 | 4.94470 | 667 ft | 14 kts | 342° |
| 2026-05-05 20:34 | 45.72180 | 4.94429 | 666 ft | 14 kts | 343° |
| 2026-05-05 20:34 | 45.72273 | 4.94391 | 665 ft | 14 kts | 343° |
| 2026-05-05 20:34 | 45.72356 | 4.94336 | 664 ft | 13 kts | 313° |
| 2026-05-05 20:34 | 45.72431 | 4.94280 | 663 ft | 12 kts | 341° |
| 2026-05-05 20:35 | 45.72512 | 4.94245 | 662 ft | 12 kts | 344° |
| 2026-05-05 20:35 | 45.72591 | 4.94212 | 662 ft | 12 kts | 344° |
| 2026-05-05 20:35 | 45.72668 | 4.94181 | 661 ft | 11 kts | 344° |
| 2026-05-05 20:35 | 45.72742 | 4.94150 | 660 ft | 11 kts | 344° |
| 2026-05-05 20:36 | 45.72815 | 4.94120 | 660 ft | 11 kts | 344° |
| 2026-05-05 20:36 | 45.72884 | 4.94084 | 659 ft | 10 kts | 332° |
| 2026-05-05 20:36 | 45.72944 | 4.94028 | 658 ft | 10 kts | 334° |
| 2026-05-05 20:36 | 45.73010 | 4.93998 | 658 ft | 10 kts | 344° |
| 2026-05-05 20:37 | 45.73076 | 4.93971 | 657 ft | 10 kts | 344° |
| 2026-05-05 20:37 | 45.73121 | 4.93953 | 657 ft | 10 kts | 344° |
| 2026-05-05 20:37 | 45.73146 | 4.93896 | 656 ft | 5 kts | 252° |
| 2026-05-05 20:37 | 45.73134 | 4.93863 | 656 ft | 3 kts | 219° |
| 2026-05-05 20:38 | 45.73113 | 4.93869 | 657 ft | 3 kts | 165° |
| 2026-05-05 20:38 | 45.73095 | 4.93876 | 657 ft | 2 kts | 164° |
| 2026-05-05 20:38 | 45.73092 | 4.93877 | 657 ft | 0 kts | 163° |